<?xml version="1.0" encoding="UTF-8" standalone="yes"?>
<gpx
 xmlns="http://www.topografix.com/GPX/1/1"
 creator="OziExplorer Version 3956f - http://www.oziexplorer.com"
 version="1.1"
 xmlns:xsi="http://www.w3.org/2001/XMLSchema-instance"
 xsi:schemaLocation="http://www.topografix.com/GPX/1/1 http://www.topografix.com/GPX/1/1/gpx.xsd">
<metadata>
 <time>2024-12-11T07:52:42Z</time>
 <bounds minlat="30.892430" minlon="34.887300" maxlat="30.990230" maxlon="34.985550"/>
</metadata>
<wpt lat="30.9888198" lon="34.9114886">
 <time>2024-12-11T09:51:52.222Z</time>
 <name>St\Fin</name>
 <sym>Bike Trail</sym>
</wpt>
<wpt lat="30.8932161" lon="34.9161756">
 <time>2024-12-11T09:51:52.248Z</time>
 <name>Tatspit3</name>
 <sym>Flag, Red</sym>
</wpt>
<wpt lat="30.9641284" lon="34.9650133">
 <time>2024-12-11T09:51:52.249Z</time>
 <name>Tatspit4</name>
 <sym>Flag, Red</sym>
</wpt>
<wpt lat="30.9740100" lon="34.8873000">
 <time>2024-12-11T09:51:52.250Z</time>
 <name>Helmoniot</name>
 <sym>Flag, Red</sym>
</wpt>
<wpt lat="30.9276600" lon="34.9307600">
 <time>2024-12-11T09:51:52.251Z</time>
 <name>Tatspit1</name>
 <sym>Flag, Red</sym>
</wpt>
<wpt lat="30.9664900" lon="34.9670600">
 <time>2024-12-11T09:51:52.252Z</time>
 <name>Vlevo-Singl</name>
 <sym>Flag, Red</sym>
</wpt>
<wpt lat="30.9025500" lon="34.9173500">
 <time>2024-12-11T09:51:52.252Z</time>
 <name>Tatspit2</name>
 <sym>Flag, Red</sym>
</wpt>
<wpt lat="30.9888200" lon="34.9114890">
 <time>2024-12-11T09:51:52.253Z</time>
 <name>St\Fin</name>
 <sym>Flag, Red</sym>
</wpt>
<wpt lat="30.8932160" lon="34.9161760">
 <time>2024-12-11T09:51:52.254Z</time>
 <name>2-TATSPIT2</name>
 <sym>Flag, Red</sym>
</wpt>
<wpt lat="30.9641280" lon="34.9650130">
 <time>2024-12-11T09:51:52.254Z</time>
 <name>3-TATSPIT3</name>
 <sym>Flag, Red</sym>
</wpt>
<wpt lat="30.9740100" lon="34.8873000">
 <time>2024-12-11T09:51:52.255Z</time>
 <name>Helmoniot</name>
 <sym>Flag, Red</sym>
</wpt>
<wpt lat="30.9276600" lon="34.9307600">
 <time>2024-12-11T09:51:52.256Z</time>
 <name>Tatspit1</name>
 <sym>Flag, Red</sym>
</wpt>
<wpt lat="30.9664900" lon="34.9670600">
 <time>2024-12-11T09:51:52.257Z</time>
 <name>Vlevo-Singl</name>
 <sym>Flag, Red</sym>
</wpt>
<wpt lat="30.9607900" lon="34.9825300">
 <time>2024-12-11T09:51:52.257Z</time>
 <name>EsimMeuvanim</name>
 <sym>Flag, Red</sym>
</wpt>
<wpt lat="30.9888200" lon="34.9114890">
 <time>2024-12-11T09:51:52.258Z</time>
 <name>St\Fin</name>
 <sym>Flag, Red</sym>
</wpt>
<wpt lat="30.8932160" lon="34.9161760">
 <time>2024-12-11T09:51:52.258Z</time>
 <name>Tatspit3</name>
 <sym>Flag, Red</sym>
</wpt>
<wpt lat="30.9641280" lon="34.9650130">
 <time>2024-12-11T09:51:52.259Z</time>
 <name>Tatspit4</name>
 <sym>Flag, Red</sym>
</wpt>
<wpt lat="30.9740100" lon="34.8873000">
 <time>2024-12-11T09:51:52.260Z</time>
 <name>Helmoniot</name>
 <sym>Flag, Red</sym>
</wpt>
<wpt lat="30.9276600" lon="34.9307600">
 <time>2024-12-11T09:51:52.260Z</time>
 <name>Tatspit1</name>
 <sym>Flag, Red</sym>
</wpt>
<wpt lat="30.9664900" lon="34.9670600">
 <time>2024-12-11T09:51:52.261Z</time>
 <name>Vlevo-Singl</name>
 <sym>Flag, Red</sym>
</wpt>
<wpt lat="30.9025500" lon="34.9173500">
 <time>2024-12-11T09:51:52.262Z</time>
 <name>Tatspit2</name>
 <sym>Flag, Red</sym>
</wpt>
<wpt lat="30.9888200" lon="34.9114890">
 <time>2024-12-11T09:51:52.263Z</time>
 <name>St\Fin</name>
 <sym>Flag, Red</sym>
</wpt>
<wpt lat="30.8932160" lon="34.9161760">
 <time>2024-12-11T09:51:52.263Z</time>
 <name>2-TATSPIT2</name>
 <sym>Flag, Red</sym>
</wpt>
<wpt lat="30.9641280" lon="34.9650130">
 <time>2024-12-11T09:51:52.264Z</time>
 <name>3-TATSPIT3</name>
 <sym>Flag, Red</sym>
</wpt>
<wpt lat="30.9740100" lon="34.8873000">
 <time>2024-12-11T09:51:52.264Z</time>
 <name>Helmoniot</name>
 <sym>Flag, Red</sym>
</wpt>
<wpt lat="30.9276600" lon="34.9307600">
 <time>2024-12-11T09:51:52.265Z</time>
 <name>Tatspit1</name>
 <sym>Flag, Red</sym>
</wpt>
<wpt lat="30.9664900" lon="34.9670600">
 <time>2024-12-11T09:51:52.265Z</time>
 <name>Vlevo-Singl</name>
 <sym>Flag, Red</sym>
</wpt>
<wpt lat="30.9607900" lon="34.9825300">
 <time>2024-12-11T09:51:52.266Z</time>
 <name>EsimMeuvanim</name>
 <sym>Flag, Red</sym>
</wpt>
<trk>
 <name>MahtGadol+Helm_44 km.820m</name>
 <desc>MahtGadol+Helm_44 km.820m</desc>
<trkseg>
<trkpt lat="30.9902300" lon="34.9117500">
<ele>456.759979</ele>
<time>2024-12-11T09:51:52.266Z</time>
</trkpt>
<trkpt lat="30.9902200" lon="34.9114300">
<ele>458.020020</ele>
<time>2024-12-11T09:51:52.266Z</time>
</trkpt>
<trkpt lat="30.9902000" lon="34.9110400">
<ele>459.209991</ele>
<time>2024-12-11T09:51:52.266Z</time>
</trkpt>
<trkpt lat="30.9902200" lon="34.9104800">
<ele>452.689972</ele>
<time>2024-12-11T09:51:52.266Z</time>
</trkpt>
<trkpt lat="30.9902300" lon="34.9097900">
<ele>454.160004</ele>
<time>2024-12-11T09:51:52.266Z</time>
</trkpt>
<trkpt lat="30.9882000" lon="34.9084100">
<ele>464.410004</ele>
<time>2024-12-11T09:51:52.266Z</time>
</trkpt>
<trkpt lat="30.9874500" lon="34.9078400">
<ele>454.410004</ele>
<time>2024-12-11T09:51:52.266Z</time>
</trkpt>
<trkpt lat="30.9868800" lon="34.9072400">
<ele>455.819977</ele>
<time>2024-12-11T09:51:52.266Z</time>
</trkpt>
<trkpt lat="30.9867400" lon="34.9069100">
<ele>457.029999</ele>
<time>2024-12-11T09:51:52.266Z</time>
</trkpt>
<trkpt lat="30.9867000" lon="34.9063800">
<ele>454.699982</ele>
<time>2024-12-11T09:51:52.266Z</time>
</trkpt>
<trkpt lat="30.9867000" lon="34.9051400">
<ele>450.270020</ele>
<time>2024-12-11T09:51:52.266Z</time>
</trkpt>
<trkpt lat="30.9864500" lon="34.9040200">
<ele>455.360016</ele>
<time>2024-12-11T09:51:52.266Z</time>
</trkpt>
<trkpt lat="30.9862200" lon="34.9035500">
<ele>458.299988</ele>
<time>2024-12-11T09:51:52.266Z</time>
</trkpt>
<trkpt lat="30.9858900" lon="34.9024100">
<ele>452.800018</ele>
<time>2024-12-11T09:51:52.266Z</time>
</trkpt>
<trkpt lat="30.9857800" lon="34.9012900">
<ele>447.859985</ele>
<time>2024-12-11T09:51:52.266Z</time>
</trkpt>
<trkpt lat="30.9859000" lon="34.9004800">
<ele>445.250000</ele>
<time>2024-12-11T09:51:52.266Z</time>
</trkpt>
<trkpt lat="30.9858500" lon="34.8998700">
<ele>446.200012</ele>
<time>2024-12-11T09:51:52.266Z</time>
</trkpt>
<trkpt lat="30.9857700" lon="34.8993700">
<ele>448.889984</ele>
<time>2024-12-11T09:51:52.266Z</time>
</trkpt>
<trkpt lat="30.9858600" lon="34.8989000">
<ele>447.289978</ele>
<time>2024-12-11T09:51:52.266Z</time>
</trkpt>
<trkpt lat="30.9860700" lon="34.8982800">
<ele>447.700012</ele>
<time>2024-12-11T09:51:52.266Z</time>
</trkpt>
<trkpt lat="30.9864700" lon="34.8977500">
<ele>443.449982</ele>
<time>2024-12-11T09:51:52.266Z</time>
</trkpt>
<trkpt lat="30.9866600" lon="34.8968600">
<ele>444.710022</ele>
<time>2024-12-11T09:51:52.266Z</time>
</trkpt>
<trkpt lat="30.9866400" lon="34.8967000">
<ele>444.049988</ele>
<time>2024-12-11T09:51:52.266Z</time>
</trkpt>
<trkpt lat="30.9865400" lon="34.8965800">
<ele>442.920013</ele>
<time>2024-12-11T09:51:52.266Z</time>
</trkpt>
<trkpt lat="30.9863800" lon="34.8965500">
<ele>441.930023</ele>
<time>2024-12-11T09:51:52.266Z</time>
</trkpt>
<trkpt lat="30.9859900" lon="34.8966700">
<ele>437.619995</ele>
<time>2024-12-11T09:51:52.266Z</time>
</trkpt>
<trkpt lat="30.9858800" lon="34.8964800">
<ele>435.260010</ele>
<time>2024-12-11T09:51:52.266Z</time>
</trkpt>
<trkpt lat="30.9858500" lon="34.8962300">
<ele>437.690002</ele>
<time>2024-12-11T09:51:52.266Z</time>
</trkpt>
<trkpt lat="30.9858900" lon="34.8959400">
<ele>441.330017</ele>
<time>2024-12-11T09:51:52.266Z</time>
</trkpt>
<trkpt lat="30.9862300" lon="34.8955600">
<ele>448.520020</ele>
<time>2024-12-11T09:51:52.266Z</time>
</trkpt>
<trkpt lat="30.9863100" lon="34.8950300">
<ele>449.279999</ele>
<time>2024-12-11T09:51:52.266Z</time>
</trkpt>
<trkpt lat="30.9863300" lon="34.8943800">
<ele>449.059998</ele>
<time>2024-12-11T09:51:52.266Z</time>
</trkpt>
<trkpt lat="30.9864200" lon="34.8938000">
<ele>449.859985</ele>
<time>2024-12-11T09:51:52.266Z</time>
</trkpt>
<trkpt lat="30.9863100" lon="34.8935600">
<ele>449.649994</ele>
<time>2024-12-11T09:51:52.266Z</time>
</trkpt>
<trkpt lat="30.9858800" lon="34.8933800">
<ele>450.029968</ele>
<time>2024-12-11T09:51:52.266Z</time>
</trkpt>
<trkpt lat="30.9858200" lon="34.8932500">
<ele>450.110016</ele>
<time>2024-12-11T09:51:52.266Z</time>
</trkpt>
<trkpt lat="30.9858700" lon="34.8930600">
<ele>449.869995</ele>
<time>2024-12-11T09:51:52.266Z</time>
</trkpt>
<trkpt lat="30.9857300" lon="34.8929800">
<ele>451.659973</ele>
<time>2024-12-11T09:51:52.266Z</time>
</trkpt>
<trkpt lat="30.9850400" lon="34.8932700">
<ele>454.420013</ele>
<time>2024-12-11T09:51:52.266Z</time>
</trkpt>
<trkpt lat="30.9845100" lon="34.8934100">
<ele>457.730011</ele>
<time>2024-12-11T09:51:52.266Z</time>
</trkpt>
<trkpt lat="30.9839000" lon="34.8933400">
<ele>449.130005</ele>
<time>2024-12-11T09:51:52.266Z</time>
</trkpt>
<trkpt lat="30.9836700" lon="34.8934200">
<ele>452.970001</ele>
<time>2024-12-11T09:51:52.266Z</time>
</trkpt>
<trkpt lat="30.9836400" lon="34.8936400">
<ele>457.410004</ele>
<time>2024-12-11T09:51:52.266Z</time>
</trkpt>
<trkpt lat="30.9836400" lon="34.8940600">
<ele>460.070007</ele>
<time>2024-12-11T09:51:52.266Z</time>
</trkpt>
<trkpt lat="30.9835300" lon="34.8942700">
<ele>464.499969</ele>
<time>2024-12-11T09:51:52.266Z</time>
</trkpt>
<trkpt lat="30.9829800" lon="34.8946900">
<ele>473.050018</ele>
<time>2024-12-11T09:51:52.266Z</time>
</trkpt>
<trkpt lat="30.9825600" lon="34.8944900">
<ele>476.180023</ele>
<time>2024-12-11T09:51:52.266Z</time>
</trkpt>
<trkpt lat="30.9822100" lon="34.8941600">
<ele>476.260010</ele>
<time>2024-12-11T09:51:52.266Z</time>
</trkpt>
<trkpt lat="30.9818800" lon="34.8939000">
<ele>455.869995</ele>
<time>2024-12-11T09:51:52.266Z</time>
</trkpt>
<trkpt lat="30.9818300" lon="34.8938400">
<ele>452.980011</ele>
<time>2024-12-11T09:51:52.266Z</time>
</trkpt>
<trkpt lat="30.9816600" lon="34.8933600">
<ele>446.139984</ele>
<time>2024-12-11T09:51:52.266Z</time>
</trkpt>
<trkpt lat="30.9813800" lon="34.8930800">
<ele>450.809998</ele>
<time>2024-12-11T09:51:52.266Z</time>
</trkpt>
<trkpt lat="30.9812600" lon="34.8930600">
<ele>451.889984</ele>
<time>2024-12-11T09:51:52.266Z</time>
</trkpt>
<trkpt lat="30.9808300" lon="34.8930400">
<ele>452.989990</ele>
<time>2024-12-11T09:51:52.266Z</time>
</trkpt>
<trkpt lat="30.9806100" lon="34.8926600">
<ele>451.010010</ele>
<time>2024-12-11T09:51:52.266Z</time>
</trkpt>
<trkpt lat="30.9804000" lon="34.8924500">
<ele>451.820007</ele>
<time>2024-12-11T09:51:52.266Z</time>
</trkpt>
<trkpt lat="30.9799900" lon="34.8922500">
<ele>455.320007</ele>
<time>2024-12-11T09:51:52.266Z</time>
</trkpt>
<trkpt lat="30.9797400" lon="34.8922500">
<ele>450.910004</ele>
<time>2024-12-11T09:51:52.266Z</time>
</trkpt>
<trkpt lat="30.9796500" lon="34.8921900">
<ele>450.920013</ele>
<time>2024-12-11T09:51:52.266Z</time>
</trkpt>
<trkpt lat="30.9790900" lon="34.8922000">
<ele>450.240021</ele>
<time>2024-12-11T09:51:52.266Z</time>
</trkpt>
<trkpt lat="30.9786800" lon="34.8923000">
<ele>458.339996</ele>
<time>2024-12-11T09:51:52.266Z</time>
</trkpt>
<trkpt lat="30.9785300" lon="34.8926500">
<ele>454.040009</ele>
<time>2024-12-11T09:51:52.266Z</time>
</trkpt>
<trkpt lat="30.9784600" lon="34.8927300">
<ele>453.399994</ele>
<time>2024-12-11T09:51:52.266Z</time>
</trkpt>
<trkpt lat="30.9779400" lon="34.8927800">
<ele>452.920013</ele>
<time>2024-12-11T09:51:52.266Z</time>
</trkpt>
<trkpt lat="30.9779000" lon="34.8928000">
<ele>452.230011</ele>
<time>2024-12-11T09:51:52.266Z</time>
</trkpt>
<trkpt lat="30.9779300" lon="34.8927800">
<ele>452.739990</ele>
<time>2024-12-11T09:51:52.266Z</time>
</trkpt>
<trkpt lat="30.9780500" lon="34.8921800">
<ele>459.970001</ele>
<time>2024-12-11T09:51:52.266Z</time>
</trkpt>
<trkpt lat="30.9780500" lon="34.8921100">
<ele>461.739990</ele>
<time>2024-12-11T09:51:52.266Z</time>
</trkpt>
<trkpt lat="30.9777900" lon="34.8917300">
<ele>467.660004</ele>
<time>2024-12-11T09:51:52.266Z</time>
</trkpt>
<trkpt lat="30.9775600" lon="34.8915900">
<ele>468.390015</ele>
<time>2024-12-11T09:51:52.266Z</time>
</trkpt>
<trkpt lat="30.9773200" lon="34.8913700">
<ele>468.919983</ele>
<time>2024-12-11T09:51:52.266Z</time>
</trkpt>
<trkpt lat="30.9767000" lon="34.8903900">
<ele>470.429993</ele>
<time>2024-12-11T09:51:52.266Z</time>
</trkpt>
<trkpt lat="30.9766700" lon="34.8900800">
<ele>474.579987</ele>
<time>2024-12-11T09:51:52.266Z</time>
</trkpt>
<trkpt lat="30.9759200" lon="34.8896100">
<ele>476.050018</ele>
<time>2024-12-11T09:51:52.266Z</time>
</trkpt>
<trkpt lat="30.9750400" lon="34.8893900">
<ele>478.000000</ele>
<time>2024-12-11T09:51:52.266Z</time>
</trkpt>
<trkpt lat="30.9744800" lon="34.8890800">
<ele>474.739990</ele>
<time>2024-12-11T09:51:52.266Z</time>
</trkpt>
<trkpt lat="30.9744000" lon="34.8883500">
<ele>482.279999</ele>
<time>2024-12-11T09:51:52.266Z</time>
</trkpt>
<trkpt lat="30.9744800" lon="34.8890800">
<ele>474.739990</ele>
<time>2024-12-11T09:51:52.266Z</time>
</trkpt>
<trkpt lat="30.9752200" lon="34.8894700">
<ele>476.780029</ele>
<time>2024-12-11T09:51:52.266Z</time>
</trkpt>
<trkpt lat="30.9757100" lon="34.8896000">
<ele>475.889984</ele>
<time>2024-12-11T09:51:52.266Z</time>
</trkpt>
<trkpt lat="30.9762300" lon="34.8898000">
<ele>473.180023</ele>
<time>2024-12-11T09:51:52.266Z</time>
</trkpt>
<trkpt lat="30.9766500" lon="34.8900600">
<ele>474.839996</ele>
<time>2024-12-11T09:51:52.266Z</time>
</trkpt>
<trkpt lat="30.9766800" lon="34.8903100">
<ele>470.860016</ele>
<time>2024-12-11T09:51:52.266Z</time>
</trkpt>
<trkpt lat="30.9772700" lon="34.8913000">
<ele>469.429993</ele>
<time>2024-12-11T09:51:52.266Z</time>
</trkpt>
<trkpt lat="30.9775500" lon="34.8915800">
<ele>468.319977</ele>
<time>2024-12-11T09:51:52.266Z</time>
</trkpt>
<trkpt lat="30.9777900" lon="34.8917300">
<ele>467.660004</ele>
<time>2024-12-11T09:51:52.266Z</time>
</trkpt>
<trkpt lat="30.9780200" lon="34.8921100">
<ele>461.289978</ele>
<time>2024-12-11T09:51:52.266Z</time>
</trkpt>
<trkpt lat="30.9779800" lon="34.8925300">
<ele>454.050018</ele>
<time>2024-12-11T09:51:52.266Z</time>
</trkpt>
<trkpt lat="30.9779000" lon="34.8928000">
<ele>452.230011</ele>
<time>2024-12-11T09:51:52.266Z</time>
</trkpt>
<trkpt lat="30.9778000" lon="34.8929000">
<ele>451.510010</ele>
<time>2024-12-11T09:51:52.266Z</time>
</trkpt>
<trkpt lat="30.9770900" lon="34.8941700">
<ele>450.470001</ele>
<time>2024-12-11T09:51:52.266Z</time>
</trkpt>
<trkpt lat="30.9770000" lon="34.8945600">
<ele>450.020020</ele>
<time>2024-12-11T09:51:52.266Z</time>
</trkpt>
<trkpt lat="30.9765000" lon="34.8957300">
<ele>439.190002</ele>
<time>2024-12-11T09:51:52.266Z</time>
</trkpt>
<trkpt lat="30.9762500" lon="34.8959400">
<ele>445.919983</ele>
<time>2024-12-11T09:51:52.266Z</time>
</trkpt>
<trkpt lat="30.9758000" lon="34.8961800">
<ele>452.139984</ele>
<time>2024-12-11T09:51:52.266Z</time>
</trkpt>
<trkpt lat="30.9749500" lon="34.8969600">
<ele>459.309998</ele>
<time>2024-12-11T09:51:52.266Z</time>
</trkpt>
<trkpt lat="30.9746600" lon="34.8973600">
<ele>462.700012</ele>
<time>2024-12-11T09:51:52.266Z</time>
</trkpt>
<trkpt lat="30.9746300" lon="34.8977600">
<ele>470.050018</ele>
<time>2024-12-11T09:51:52.266Z</time>
</trkpt>
<trkpt lat="30.9745100" lon="34.8979100">
<ele>472.920013</ele>
<time>2024-12-11T09:51:52.266Z</time>
</trkpt>
<trkpt lat="30.9740700" lon="34.8989900">
<ele>468.160004</ele>
<time>2024-12-11T09:51:52.266Z</time>
</trkpt>
<trkpt lat="30.9704500" lon="34.8978500">
<ele>464.859985</ele>
<time>2024-12-11T09:51:52.266Z</time>
</trkpt>
<trkpt lat="30.9694900" lon="34.8979300">
<ele>466.690002</ele>
<time>2024-12-11T09:51:52.266Z</time>
</trkpt>
<trkpt lat="30.9688300" lon="34.8979000">
<ele>463.369995</ele>
<time>2024-12-11T09:51:52.266Z</time>
</trkpt>
<trkpt lat="30.9688300" lon="34.8979700">
<ele>463.910004</ele>
<time>2024-12-11T09:51:52.266Z</time>
</trkpt>
<trkpt lat="30.9688800" lon="34.8984300">
<ele>469.240021</ele>
<time>2024-12-11T09:51:52.266Z</time>
</trkpt>
<trkpt lat="30.9690400" lon="34.8986600">
<ele>475.059998</ele>
<time>2024-12-11T09:51:52.266Z</time>
</trkpt>
<trkpt lat="30.9690700" lon="34.8991100">
<ele>478.309998</ele>
<time>2024-12-11T09:51:52.266Z</time>
</trkpt>
<trkpt lat="30.9694200" lon="34.8992300">
<ele>478.320007</ele>
<time>2024-12-11T09:51:52.266Z</time>
</trkpt>
<trkpt lat="30.9695400" lon="34.8993000">
<ele>478.820007</ele>
<time>2024-12-11T09:51:52.266Z</time>
</trkpt>
<trkpt lat="30.9696000" lon="34.8995000">
<ele>479.359985</ele>
<time>2024-12-11T09:51:52.266Z</time>
</trkpt>
<trkpt lat="30.9698100" lon="34.8997800">
<ele>475.329987</ele>
<time>2024-12-11T09:51:52.266Z</time>
</trkpt>
<trkpt lat="30.9704300" lon="34.9003100">
<ele>470.660004</ele>
<time>2024-12-11T09:51:52.266Z</time>
</trkpt>
<trkpt lat="30.9704300" lon="34.9004400">
<ele>472.529999</ele>
<time>2024-12-11T09:51:52.266Z</time>
</trkpt>
<trkpt lat="30.9702000" lon="34.9007700">
<ele>474.179993</ele>
<time>2024-12-11T09:51:52.266Z</time>
</trkpt>
<trkpt lat="30.9701000" lon="34.9010500">
<ele>474.000031</ele>
<time>2024-12-11T09:51:52.266Z</time>
</trkpt>
<trkpt lat="30.9700500" lon="34.9016500">
<ele>469.700012</ele>
<time>2024-12-11T09:51:52.266Z</time>
</trkpt>
<trkpt lat="30.9699800" lon="34.9019600">
<ele>465.089996</ele>
<time>2024-12-11T09:51:52.266Z</time>
</trkpt>
<trkpt lat="30.9692600" lon="34.9029800">
<ele>471.519989</ele>
<time>2024-12-11T09:51:52.266Z</time>
</trkpt>
<trkpt lat="30.9691500" lon="34.9032400">
<ele>469.690002</ele>
<time>2024-12-11T09:51:52.266Z</time>
</trkpt>
<trkpt lat="30.9691400" lon="34.9033500">
<ele>469.100006</ele>
<time>2024-12-11T09:51:52.266Z</time>
</trkpt>
<trkpt lat="30.9688400" lon="34.9038200">
<ele>471.809998</ele>
<time>2024-12-11T09:51:52.266Z</time>
</trkpt>
<trkpt lat="30.9682200" lon="34.9043300">
<ele>473.440002</ele>
<time>2024-12-11T09:51:52.266Z</time>
</trkpt>
<trkpt lat="30.9676500" lon="34.9044800">
<ele>476.579987</ele>
<time>2024-12-11T09:51:52.266Z</time>
</trkpt>
<trkpt lat="30.9674100" lon="34.9046200">
<ele>477.110016</ele>
<time>2024-12-11T09:51:52.266Z</time>
</trkpt>
<trkpt lat="30.9669200" lon="34.9047900">
<ele>476.459991</ele>
<time>2024-12-11T09:51:52.266Z</time>
</trkpt>
<trkpt lat="30.9666600" lon="34.9049900">
<ele>483.070007</ele>
<time>2024-12-11T09:51:52.266Z</time>
</trkpt>
<trkpt lat="30.9664100" lon="34.9051400">
<ele>489.549988</ele>
<time>2024-12-11T09:51:52.266Z</time>
</trkpt>
<trkpt lat="30.9661600" lon="34.9051900">
<ele>492.280029</ele>
<time>2024-12-11T09:51:52.266Z</time>
</trkpt>
<trkpt lat="30.9657300" lon="34.9052600">
<ele>488.570007</ele>
<time>2024-12-11T09:51:52.266Z</time>
</trkpt>
<trkpt lat="30.9652400" lon="34.9052800">
<ele>480.690002</ele>
<time>2024-12-11T09:51:52.266Z</time>
</trkpt>
<trkpt lat="30.9652000" lon="34.9059000">
<ele>482.670013</ele>
<time>2024-12-11T09:51:52.266Z</time>
</trkpt>
<trkpt lat="30.9650500" lon="34.9064500">
<ele>483.059998</ele>
<time>2024-12-11T09:51:52.266Z</time>
</trkpt>
<trkpt lat="30.9649100" lon="34.9065900">
<ele>481.500000</ele>
<time>2024-12-11T09:51:52.266Z</time>
</trkpt>
<trkpt lat="30.9645300" lon="34.9068900">
<ele>479.080017</ele>
<time>2024-12-11T09:51:52.266Z</time>
</trkpt>
<trkpt lat="30.9644200" lon="34.9072100">
<ele>479.269989</ele>
<time>2024-12-11T09:51:52.266Z</time>
</trkpt>
<trkpt lat="30.9644000" lon="34.9074500">
<ele>478.820007</ele>
<time>2024-12-11T09:51:52.266Z</time>
</trkpt>
<trkpt lat="30.9634100" lon="34.9074500">
<ele>479.480011</ele>
<time>2024-12-11T09:51:52.266Z</time>
</trkpt>
<trkpt lat="30.9627000" lon="34.9070900">
<ele>482.949982</ele>
<time>2024-12-11T09:51:52.266Z</time>
</trkpt>
<trkpt lat="30.9622800" lon="34.9070100">
<ele>488.579987</ele>
<time>2024-12-11T09:51:52.266Z</time>
</trkpt>
<trkpt lat="30.9620300" lon="34.9070100">
<ele>491.590027</ele>
<time>2024-12-11T09:51:52.266Z</time>
</trkpt>
<trkpt lat="30.9619800" lon="34.9070800">
<ele>491.760010</ele>
<time>2024-12-11T09:51:52.266Z</time>
</trkpt>
<trkpt lat="30.9619600" lon="34.9072900">
<ele>490.780029</ele>
<time>2024-12-11T09:51:52.266Z</time>
</trkpt>
<trkpt lat="30.9616700" lon="34.9073100">
<ele>491.670013</ele>
<time>2024-12-11T09:51:52.266Z</time>
</trkpt>
<trkpt lat="30.9606800" lon="34.9075100">
<ele>485.459991</ele>
<time>2024-12-11T09:51:52.266Z</time>
</trkpt>
<trkpt lat="30.9601900" lon="34.9077500">
<ele>486.330017</ele>
<time>2024-12-11T09:51:52.266Z</time>
</trkpt>
<trkpt lat="30.9588800" lon="34.9080400">
<ele>501.130005</ele>
<time>2024-12-11T09:51:52.266Z</time>
</trkpt>
<trkpt lat="30.9585800" lon="34.9081800">
<ele>508.779999</ele>
<time>2024-12-11T09:51:52.266Z</time>
</trkpt>
<trkpt lat="30.9581800" lon="34.9082200">
<ele>511.750000</ele>
<time>2024-12-11T09:51:52.266Z</time>
</trkpt>
<trkpt lat="30.9578400" lon="34.9083300">
<ele>509.619995</ele>
<time>2024-12-11T09:51:52.266Z</time>
</trkpt>
<trkpt lat="30.9552500" lon="34.9083700">
<ele>539.690002</ele>
<time>2024-12-11T09:51:52.266Z</time>
</trkpt>
<trkpt lat="30.9550200" lon="34.9084800">
<ele>544.750000</ele>
<time>2024-12-11T09:51:52.266Z</time>
</trkpt>
<trkpt lat="30.9549300" lon="34.9086100">
<ele>546.479980</ele>
<time>2024-12-11T09:51:52.266Z</time>
</trkpt>
<trkpt lat="30.9544500" lon="34.9087000">
<ele>547.619995</ele>
<time>2024-12-11T09:51:52.266Z</time>
</trkpt>
<trkpt lat="30.9538500" lon="34.9087000">
<ele>555.760010</ele>
<time>2024-12-11T09:51:52.266Z</time>
</trkpt>
<trkpt lat="30.9533500" lon="34.9087500">
<ele>551.559998</ele>
<time>2024-12-11T09:51:52.266Z</time>
</trkpt>
<trkpt lat="30.9531000" lon="34.9090200">
<ele>544.899963</ele>
<time>2024-12-11T09:51:52.266Z</time>
</trkpt>
<trkpt lat="30.9526300" lon="34.9092300">
<ele>543.159973</ele>
<time>2024-12-11T09:51:52.266Z</time>
</trkpt>
<trkpt lat="30.9515100" lon="34.9092900">
<ele>522.700012</ele>
<time>2024-12-11T09:51:52.266Z</time>
</trkpt>
<trkpt lat="30.9507500" lon="34.9092900">
<ele>545.790039</ele>
<time>2024-12-11T09:51:52.266Z</time>
</trkpt>
<trkpt lat="30.9505800" lon="34.9093500">
<ele>547.339966</ele>
<time>2024-12-11T09:51:52.266Z</time>
</trkpt>
<trkpt lat="30.9498100" lon="34.9094000">
<ele>553.260010</ele>
<time>2024-12-11T09:51:52.266Z</time>
</trkpt>
<trkpt lat="30.9494400" lon="34.9095900">
<ele>558.099976</ele>
<time>2024-12-11T09:51:52.266Z</time>
</trkpt>
<trkpt lat="30.9492300" lon="34.9102400">
<ele>562.440002</ele>
<time>2024-12-11T09:51:52.266Z</time>
</trkpt>
<trkpt lat="30.9490500" lon="34.9104900">
<ele>564.000000</ele>
<time>2024-12-11T09:51:52.266Z</time>
</trkpt>
<trkpt lat="30.9485200" lon="34.9107600">
<ele>563.109985</ele>
<time>2024-12-11T09:51:52.266Z</time>
</trkpt>
<trkpt lat="30.9474200" lon="34.9110900">
<ele>551.839966</ele>
<time>2024-12-11T09:51:52.266Z</time>
</trkpt>
<trkpt lat="30.9471700" lon="34.9113500">
<ele>550.130005</ele>
<time>2024-12-11T09:51:52.266Z</time>
</trkpt>
<trkpt lat="30.9470600" lon="34.9113700">
<ele>552.809998</ele>
<time>2024-12-11T09:51:52.266Z</time>
</trkpt>
<trkpt lat="30.9467000" lon="34.9116600">
<ele>565.080017</ele>
<time>2024-12-11T09:51:52.266Z</time>
</trkpt>
<trkpt lat="30.9458800" lon="34.9117600">
<ele>567.510010</ele>
<time>2024-12-11T09:51:52.266Z</time>
</trkpt>
<trkpt lat="30.9455900" lon="34.9118500">
<ele>572.979980</ele>
<time>2024-12-11T09:51:52.266Z</time>
</trkpt>
<trkpt lat="30.9452300" lon="34.9118500">
<ele>578.640015</ele>
<time>2024-12-11T09:51:52.266Z</time>
</trkpt>
<trkpt lat="30.9445300" lon="34.9113000">
<ele>567.500000</ele>
<time>2024-12-11T09:51:52.266Z</time>
</trkpt>
<trkpt lat="30.9443400" lon="34.9112800">
<ele>567.920044</ele>
<time>2024-12-11T09:51:52.266Z</time>
</trkpt>
<trkpt lat="30.9441600" lon="34.9113200">
<ele>569.400024</ele>
<time>2024-12-11T09:51:52.266Z</time>
</trkpt>
<trkpt lat="30.9440500" lon="34.9116100">
<ele>571.309998</ele>
<time>2024-12-11T09:51:52.266Z</time>
</trkpt>
<trkpt lat="30.9439400" lon="34.9117500">
<ele>572.559998</ele>
<time>2024-12-11T09:51:52.266Z</time>
</trkpt>
<trkpt lat="30.9438200" lon="34.9123800">
<ele>576.000000</ele>
<time>2024-12-11T09:51:52.266Z</time>
</trkpt>
<trkpt lat="30.9436200" lon="34.9126600">
<ele>573.260010</ele>
<time>2024-12-11T09:51:52.266Z</time>
</trkpt>
<trkpt lat="30.9424900" lon="34.9134300">
<ele>568.000000</ele>
<time>2024-12-11T09:51:52.266Z</time>
</trkpt>
<trkpt lat="30.9418200" lon="34.9142600">
<ele>564.179993</ele>
<time>2024-12-11T09:51:52.266Z</time>
</trkpt>
<trkpt lat="30.9412200" lon="34.9148600">
<ele>556.280029</ele>
<time>2024-12-11T09:51:52.266Z</time>
</trkpt>
<trkpt lat="30.9411800" lon="34.9150100">
<ele>555.859985</ele>
<time>2024-12-11T09:51:52.266Z</time>
</trkpt>
<trkpt lat="30.9407600" lon="34.9152600">
<ele>557.630005</ele>
<time>2024-12-11T09:51:52.266Z</time>
</trkpt>
<trkpt lat="30.9404600" lon="34.9157300">
<ele>559.760010</ele>
<time>2024-12-11T09:51:52.266Z</time>
</trkpt>
<trkpt lat="30.9399000" lon="34.9163100">
<ele>569.919983</ele>
<time>2024-12-11T09:51:52.266Z</time>
</trkpt>
<trkpt lat="30.9398800" lon="34.9164600">
<ele>571.239990</ele>
<time>2024-12-11T09:51:52.266Z</time>
</trkpt>
<trkpt lat="30.9398300" lon="34.9164700">
<ele>571.760010</ele>
<time>2024-12-11T09:51:52.266Z</time>
</trkpt>
<trkpt lat="30.9394700" lon="34.9169000">
<ele>575.219971</ele>
<time>2024-12-11T09:51:52.266Z</time>
</trkpt>
<trkpt lat="30.9384200" lon="34.9177700">
<ele>556.589966</ele>
<time>2024-12-11T09:51:52.266Z</time>
</trkpt>
<trkpt lat="30.9383400" lon="34.9179200">
<ele>557.720032</ele>
<time>2024-12-11T09:51:52.266Z</time>
</trkpt>
<trkpt lat="30.9380500" lon="34.9181700">
<ele>558.599976</ele>
<time>2024-12-11T09:51:52.266Z</time>
</trkpt>
<trkpt lat="30.9377600" lon="34.9186500">
<ele>569.669983</ele>
<time>2024-12-11T09:51:52.266Z</time>
</trkpt>
<trkpt lat="30.9375800" lon="34.9193700">
<ele>574.089966</ele>
<time>2024-12-11T09:51:52.266Z</time>
</trkpt>
<trkpt lat="30.9373600" lon="34.9198000">
<ele>574.179993</ele>
<time>2024-12-11T09:51:52.266Z</time>
</trkpt>
<trkpt lat="30.9370100" lon="34.9201400">
<ele>572.359985</ele>
<time>2024-12-11T09:51:52.266Z</time>
</trkpt>
<trkpt lat="30.9368100" lon="34.9201800">
<ele>572.130005</ele>
<time>2024-12-11T09:51:52.266Z</time>
</trkpt>
<trkpt lat="30.9362000" lon="34.9206800">
<ele>573.859985</ele>
<time>2024-12-11T09:51:52.266Z</time>
</trkpt>
<trkpt lat="30.9359700" lon="34.9210200">
<ele>578.359985</ele>
<time>2024-12-11T09:51:52.266Z</time>
</trkpt>
<trkpt lat="30.9354300" lon="34.9212700">
<ele>581.549988</ele>
<time>2024-12-11T09:51:52.266Z</time>
</trkpt>
<trkpt lat="30.9348900" lon="34.9216100">
<ele>582.229980</ele>
<time>2024-12-11T09:51:52.266Z</time>
</trkpt>
<trkpt lat="30.9346600" lon="34.9216200">
<ele>577.600037</ele>
<time>2024-12-11T09:51:52.266Z</time>
</trkpt>
<trkpt lat="30.9345100" lon="34.9217100">
<ele>576.500000</ele>
<time>2024-12-11T09:51:52.266Z</time>
</trkpt>
<trkpt lat="30.9335700" lon="34.9217900">
<ele>572.489990</ele>
<time>2024-12-11T09:51:52.266Z</time>
</trkpt>
<trkpt lat="30.9329600" lon="34.9219900">
<ele>576.599976</ele>
<time>2024-12-11T09:51:52.266Z</time>
</trkpt>
<trkpt lat="30.9325800" lon="34.9224200">
<ele>585.010010</ele>
<time>2024-12-11T09:51:52.266Z</time>
</trkpt>
<trkpt lat="30.9322600" lon="34.9224700">
<ele>577.919983</ele>
<time>2024-12-11T09:51:52.266Z</time>
</trkpt>
<trkpt lat="30.9313100" lon="34.9228800">
<ele>581.940002</ele>
<time>2024-12-11T09:51:52.266Z</time>
</trkpt>
<trkpt lat="30.9308400" lon="34.9229400">
<ele>588.389954</ele>
<time>2024-12-11T09:51:52.266Z</time>
</trkpt>
<trkpt lat="30.9307100" lon="34.9230700">
<ele>590.869995</ele>
<time>2024-12-11T09:51:52.266Z</time>
</trkpt>
<trkpt lat="30.9303200" lon="34.9233300">
<ele>591.559998</ele>
<time>2024-12-11T09:51:52.266Z</time>
</trkpt>
<trkpt lat="30.9301200" lon="34.9235800">
<ele>592.110046</ele>
<time>2024-12-11T09:51:52.266Z</time>
</trkpt>
<trkpt lat="30.9298500" lon="34.9237300">
<ele>590.200012</ele>
<time>2024-12-11T09:51:52.266Z</time>
</trkpt>
<trkpt lat="30.9295400" lon="34.9239800">
<ele>592.570007</ele>
<time>2024-12-11T09:51:52.266Z</time>
</trkpt>
<trkpt lat="30.9292200" lon="34.9242900">
<ele>593.350037</ele>
<time>2024-12-11T09:51:52.266Z</time>
</trkpt>
<trkpt lat="30.9290200" lon="34.9245300">
<ele>590.500000</ele>
<time>2024-12-11T09:51:52.266Z</time>
</trkpt>
<trkpt lat="30.9289800" lon="34.9251500">
<ele>596.149963</ele>
<time>2024-12-11T09:51:52.266Z</time>
</trkpt>
<trkpt lat="30.9286900" lon="34.9255700">
<ele>591.739990</ele>
<time>2024-12-11T09:51:52.266Z</time>
</trkpt>
<trkpt lat="30.9286400" lon="34.9256900">
<ele>590.440002</ele>
<time>2024-12-11T09:51:52.266Z</time>
</trkpt>
<trkpt lat="30.9282700" lon="34.9259900">
<ele>588.880005</ele>
<time>2024-12-11T09:51:52.266Z</time>
</trkpt>
<trkpt lat="30.9282500" lon="34.9260300">
<ele>589.010010</ele>
<time>2024-12-11T09:51:52.266Z</time>
</trkpt>
<trkpt lat="30.9281100" lon="34.9281000">
<ele>608.070007</ele>
<time>2024-12-11T09:51:52.266Z</time>
</trkpt>
<trkpt lat="30.9277900" lon="34.9293500">
<ele>615.659973</ele>
<time>2024-12-11T09:51:52.266Z</time>
</trkpt>
<trkpt lat="30.9276800" lon="34.9308500">
<ele>628.739990</ele>
<time>2024-12-11T09:51:52.266Z</time>
</trkpt>
<trkpt lat="30.9277900" lon="34.9293500">
<ele>615.659973</ele>
<time>2024-12-11T09:51:52.266Z</time>
</trkpt>
<trkpt lat="30.9280900" lon="34.9281100">
<ele>607.859985</ele>
<time>2024-12-11T09:51:52.266Z</time>
</trkpt>
<trkpt lat="30.9282600" lon="34.9259500">
<ele>588.359985</ele>
<time>2024-12-11T09:51:52.266Z</time>
</trkpt>
<trkpt lat="30.9286400" lon="34.9256700">
<ele>590.470032</ele>
<time>2024-12-11T09:51:52.266Z</time>
</trkpt>
<trkpt lat="30.9286900" lon="34.9255500">
<ele>591.619995</ele>
<time>2024-12-11T09:51:52.266Z</time>
</trkpt>
<trkpt lat="30.9289800" lon="34.9251500">
<ele>596.149963</ele>
<time>2024-12-11T09:51:52.266Z</time>
</trkpt>
<trkpt lat="30.9290300" lon="34.9243200">
<ele>588.659973</ele>
<time>2024-12-11T09:51:52.266Z</time>
</trkpt>
<trkpt lat="30.9291100" lon="34.9240300">
<ele>587.510010</ele>
<time>2024-12-11T09:51:52.266Z</time>
</trkpt>
<trkpt lat="30.9291500" lon="34.9238000">
<ele>585.779968</ele>
<time>2024-12-11T09:51:52.266Z</time>
</trkpt>
<trkpt lat="30.9292500" lon="34.9235000">
<ele>585.840027</ele>
<time>2024-12-11T09:51:52.266Z</time>
</trkpt>
<trkpt lat="30.9292900" lon="34.9234500">
<ele>585.969971</ele>
<time>2024-12-11T09:51:52.266Z</time>
</trkpt>
<trkpt lat="30.9292900" lon="34.9233600">
<ele>586.510010</ele>
<time>2024-12-11T09:51:52.266Z</time>
</trkpt>
<trkpt lat="30.9292900" lon="34.9232000">
<ele>590.829956</ele>
<time>2024-12-11T09:51:52.266Z</time>
</trkpt>
<trkpt lat="30.9292900" lon="34.9229800">
<ele>597.840027</ele>
<time>2024-12-11T09:51:52.266Z</time>
</trkpt>
<trkpt lat="30.9292600" lon="34.9227900">
<ele>604.279968</ele>
<time>2024-12-11T09:51:52.266Z</time>
</trkpt>
<trkpt lat="30.9292300" lon="34.9226700">
<ele>606.320007</ele>
<time>2024-12-11T09:51:52.266Z</time>
</trkpt>
<trkpt lat="30.9291800" lon="34.9224700">
<ele>609.289978</ele>
<time>2024-12-11T09:51:52.266Z</time>
</trkpt>
<trkpt lat="30.9290000" lon="34.9222800">
<ele>612.579956</ele>
<time>2024-12-11T09:51:52.266Z</time>
</trkpt>
<trkpt lat="30.9288200" lon="34.9220800">
<ele>616.160034</ele>
<time>2024-12-11T09:51:52.266Z</time>
</trkpt>
<trkpt lat="30.9284800" lon="34.9219400">
<ele>623.380005</ele>
<time>2024-12-11T09:51:52.266Z</time>
</trkpt>
<trkpt lat="30.9283500" lon="34.9213300">
<ele>629.099976</ele>
<time>2024-12-11T09:51:52.266Z</time>
</trkpt>
<trkpt lat="30.9279800" lon="34.9211300">
<ele>623.080017</ele>
<time>2024-12-11T09:51:52.266Z</time>
</trkpt>
<trkpt lat="30.9279400" lon="34.9209900">
<ele>621.969971</ele>
<time>2024-12-11T09:51:52.266Z</time>
</trkpt>
<trkpt lat="30.9279800" lon="34.9201700">
<ele>623.029968</ele>
<time>2024-12-11T09:51:52.266Z</time>
</trkpt>
<trkpt lat="30.9278400" lon="34.9197300">
<ele>619.390015</ele>
<time>2024-12-11T09:51:52.266Z</time>
</trkpt>
<trkpt lat="30.9278800" lon="34.9191400">
<ele>618.440002</ele>
<time>2024-12-11T09:51:52.266Z</time>
</trkpt>
<trkpt lat="30.9278500" lon="34.9190500">
<ele>617.869995</ele>
<time>2024-12-11T09:51:52.266Z</time>
</trkpt>
<trkpt lat="30.9276200" lon="34.9188400">
<ele>611.979980</ele>
<time>2024-12-11T09:51:52.266Z</time>
</trkpt>
<trkpt lat="30.9275800" lon="34.9185300">
<ele>610.460022</ele>
<time>2024-12-11T09:51:52.266Z</time>
</trkpt>
<trkpt lat="30.9275500" lon="34.9176800">
<ele>610.640015</ele>
<time>2024-12-11T09:51:52.266Z</time>
</trkpt>
<trkpt lat="30.9275400" lon="34.9170100">
<ele>600.200012</ele>
<time>2024-12-11T09:51:52.266Z</time>
</trkpt>
<trkpt lat="30.9275000" lon="34.9163100">
<ele>596.000000</ele>
<time>2024-12-11T09:51:52.266Z</time>
</trkpt>
<trkpt lat="30.9272700" lon="34.9159300">
<ele>592.039978</ele>
<time>2024-12-11T09:51:52.266Z</time>
</trkpt>
<trkpt lat="30.9271700" lon="34.9159300">
<ele>591.899963</ele>
<time>2024-12-11T09:51:52.266Z</time>
</trkpt>
<trkpt lat="30.9271300" lon="34.9162400">
<ele>591.869995</ele>
<time>2024-12-11T09:51:52.266Z</time>
</trkpt>
<trkpt lat="30.9271100" lon="34.9169100">
<ele>588.600037</ele>
<time>2024-12-11T09:51:52.266Z</time>
</trkpt>
<trkpt lat="30.9270800" lon="34.9170600">
<ele>588.690002</ele>
<time>2024-12-11T09:51:52.266Z</time>
</trkpt>
<trkpt lat="30.9267300" lon="34.9172300">
<ele>587.230042</ele>
<time>2024-12-11T09:51:52.266Z</time>
</trkpt>
<trkpt lat="30.9262500" lon="34.9172300">
<ele>598.000000</ele>
<time>2024-12-11T09:51:52.266Z</time>
</trkpt>
<trkpt lat="30.9259900" lon="34.9171900">
<ele>605.720032</ele>
<time>2024-12-11T09:51:52.266Z</time>
</trkpt>
<trkpt lat="30.9256700" lon="34.9171700">
<ele>607.820007</ele>
<time>2024-12-11T09:51:52.266Z</time>
</trkpt>
<trkpt lat="30.9255800" lon="34.9169600">
<ele>608.160034</ele>
<time>2024-12-11T09:51:52.266Z</time>
</trkpt>
<trkpt lat="30.9255500" lon="34.9169500">
<ele>607.919983</ele>
<time>2024-12-11T09:51:52.266Z</time>
</trkpt>
<trkpt lat="30.9250600" lon="34.9169900">
<ele>599.059998</ele>
<time>2024-12-11T09:51:52.266Z</time>
</trkpt>
<trkpt lat="30.9249700" lon="34.9170800">
<ele>597.400024</ele>
<time>2024-12-11T09:51:52.266Z</time>
</trkpt>
<trkpt lat="30.9248900" lon="34.9173500">
<ele>597.520020</ele>
<time>2024-12-11T09:51:52.266Z</time>
</trkpt>
<trkpt lat="30.9243400" lon="34.9177100">
<ele>599.789978</ele>
<time>2024-12-11T09:51:52.266Z</time>
</trkpt>
<trkpt lat="30.9241000" lon="34.9179700">
<ele>603.770020</ele>
<time>2024-12-11T09:51:52.266Z</time>
</trkpt>
<trkpt lat="30.9237100" lon="34.9179700">
<ele>613.690002</ele>
<time>2024-12-11T09:51:52.266Z</time>
</trkpt>
<trkpt lat="30.9233600" lon="34.9177200">
<ele>614.979980</ele>
<time>2024-12-11T09:51:52.266Z</time>
</trkpt>
<trkpt lat="30.9233500" lon="34.9167800">
<ele>608.679993</ele>
<time>2024-12-11T09:51:52.266Z</time>
</trkpt>
<trkpt lat="30.9231500" lon="34.9165000">
<ele>610.119995</ele>
<time>2024-12-11T09:51:52.266Z</time>
</trkpt>
<trkpt lat="30.9228500" lon="34.9165000">
<ele>612.479980</ele>
<time>2024-12-11T09:51:52.266Z</time>
</trkpt>
<trkpt lat="30.9227000" lon="34.9165500">
<ele>613.119995</ele>
<time>2024-12-11T09:51:52.266Z</time>
</trkpt>
<trkpt lat="30.9223800" lon="34.9168700">
<ele>613.529968</ele>
<time>2024-12-11T09:51:52.266Z</time>
</trkpt>
<trkpt lat="30.9223400" lon="34.9172200">
<ele>616.250000</ele>
<time>2024-12-11T09:51:52.266Z</time>
</trkpt>
<trkpt lat="30.9222700" lon="34.9173200">
<ele>617.450012</ele>
<time>2024-12-11T09:51:52.266Z</time>
</trkpt>
<trkpt lat="30.9211300" lon="34.9177100">
<ele>613.970032</ele>
<time>2024-12-11T09:51:52.266Z</time>
</trkpt>
<trkpt lat="30.9208700" lon="34.9177200">
<ele>613.130005</ele>
<time>2024-12-11T09:51:52.266Z</time>
</trkpt>
<trkpt lat="30.9207800" lon="34.9177200">
<ele>612.660034</ele>
<time>2024-12-11T09:51:52.266Z</time>
</trkpt>
<trkpt lat="30.9203600" lon="34.9177500">
<ele>609.690002</ele>
<time>2024-12-11T09:51:52.266Z</time>
</trkpt>
<trkpt lat="30.9196400" lon="34.9180900">
<ele>617.159973</ele>
<time>2024-12-11T09:51:52.266Z</time>
</trkpt>
<trkpt lat="30.9192100" lon="34.9180900">
<ele>624.429993</ele>
<time>2024-12-11T09:51:52.266Z</time>
</trkpt>
<trkpt lat="30.9190700" lon="34.9180100">
<ele>623.969971</ele>
<time>2024-12-11T09:51:52.266Z</time>
</trkpt>
<trkpt lat="30.9186700" lon="34.9179200">
<ele>620.270020</ele>
<time>2024-12-11T09:51:52.266Z</time>
</trkpt>
<trkpt lat="30.9179900" lon="34.9173000">
<ele>639.929993</ele>
<time>2024-12-11T09:51:52.266Z</time>
</trkpt>
<trkpt lat="30.9176600" lon="34.9172000">
<ele>638.330017</ele>
<time>2024-12-11T09:51:52.266Z</time>
</trkpt>
<trkpt lat="30.9161500" lon="34.9171900">
<ele>624.840027</ele>
<time>2024-12-11T09:51:52.266Z</time>
</trkpt>
<trkpt lat="30.9159200" lon="34.9169100">
<ele>625.739990</ele>
<time>2024-12-11T09:51:52.266Z</time>
</trkpt>
<trkpt lat="30.9158100" lon="34.9165300">
<ele>631.760010</ele>
<time>2024-12-11T09:51:52.266Z</time>
</trkpt>
<trkpt lat="30.9154300" lon="34.9160200">
<ele>636.429993</ele>
<time>2024-12-11T09:51:52.266Z</time>
</trkpt>
<trkpt lat="30.9144100" lon="34.9157800">
<ele>642.959961</ele>
<time>2024-12-11T09:51:52.266Z</time>
</trkpt>
<trkpt lat="30.9141200" lon="34.9155500">
<ele>644.280029</ele>
<time>2024-12-11T09:51:52.266Z</time>
</trkpt>
<trkpt lat="30.9140400" lon="34.9152900">
<ele>648.880005</ele>
<time>2024-12-11T09:51:52.266Z</time>
</trkpt>
<trkpt lat="30.9135500" lon="34.9152600">
<ele>647.040039</ele>
<time>2024-12-11T09:51:52.266Z</time>
</trkpt>
<trkpt lat="30.9132600" lon="34.9152600">
<ele>641.339966</ele>
<time>2024-12-11T09:51:52.266Z</time>
</trkpt>
<trkpt lat="30.9130900" lon="34.9152800">
<ele>636.879944</ele>
<time>2024-12-11T09:51:52.266Z</time>
</trkpt>
<trkpt lat="30.9125100" lon="34.9152700">
<ele>631.570007</ele>
<time>2024-12-11T09:51:52.266Z</time>
</trkpt>
<trkpt lat="30.9118400" lon="34.9153100">
<ele>634.029968</ele>
<time>2024-12-11T09:51:52.266Z</time>
</trkpt>
<trkpt lat="30.9115900" lon="34.9155900">
<ele>632.770020</ele>
<time>2024-12-11T09:51:52.266Z</time>
</trkpt>
<trkpt lat="30.9115600" lon="34.9157800">
<ele>634.309998</ele>
<time>2024-12-11T09:51:52.266Z</time>
</trkpt>
<trkpt lat="30.9109800" lon="34.9168100">
<ele>638.279968</ele>
<time>2024-12-11T09:51:52.266Z</time>
</trkpt>
<trkpt lat="30.9107700" lon="34.9169800">
<ele>638.779968</ele>
<time>2024-12-11T09:51:52.266Z</time>
</trkpt>
<trkpt lat="30.9098500" lon="34.9173100">
<ele>655.950012</ele>
<time>2024-12-11T09:51:52.266Z</time>
</trkpt>
<trkpt lat="30.9093300" lon="34.9172800">
<ele>665.429993</ele>
<time>2024-12-11T09:51:52.266Z</time>
</trkpt>
<trkpt lat="30.9091000" lon="34.9169800">
<ele>666.850037</ele>
<time>2024-12-11T09:51:52.266Z</time>
</trkpt>
<trkpt lat="30.9090500" lon="34.9165600">
<ele>664.450012</ele>
<time>2024-12-11T09:51:52.266Z</time>
</trkpt>
<trkpt lat="30.9088600" lon="34.9162900">
<ele>657.500061</ele>
<time>2024-12-11T09:51:52.266Z</time>
</trkpt>
<trkpt lat="30.9086000" lon="34.9156100">
<ele>654.480042</ele>
<time>2024-12-11T09:51:52.266Z</time>
</trkpt>
<trkpt lat="30.9080000" lon="34.9151400">
<ele>646.609985</ele>
<time>2024-12-11T09:51:52.266Z</time>
</trkpt>
<trkpt lat="30.9076600" lon="34.9151200">
<ele>648.569946</ele>
<time>2024-12-11T09:51:52.266Z</time>
</trkpt>
<trkpt lat="30.9069600" lon="34.9151300">
<ele>653.419983</ele>
<time>2024-12-11T09:51:52.266Z</time>
</trkpt>
<trkpt lat="30.9065100" lon="34.9154300">
<ele>656.809998</ele>
<time>2024-12-11T09:51:52.266Z</time>
</trkpt>
<trkpt lat="30.9063700" lon="34.9155800">
<ele>658.019958</ele>
<time>2024-12-11T09:51:52.266Z</time>
</trkpt>
<trkpt lat="30.9062000" lon="34.9156200">
<ele>661.619995</ele>
<time>2024-12-11T09:51:52.266Z</time>
</trkpt>
<trkpt lat="30.9059700" lon="34.9156300">
<ele>664.420044</ele>
<time>2024-12-11T09:51:52.266Z</time>
</trkpt>
<trkpt lat="30.9058200" lon="34.9156000">
<ele>665.659973</ele>
<time>2024-12-11T09:51:52.266Z</time>
</trkpt>
<trkpt lat="30.9055600" lon="34.9156000">
<ele>662.219971</ele>
<time>2024-12-11T09:51:52.266Z</time>
</trkpt>
<trkpt lat="30.9052400" lon="34.9158500">
<ele>656.630005</ele>
<time>2024-12-11T09:51:52.266Z</time>
</trkpt>
<trkpt lat="30.9050000" lon="34.9162700">
<ele>658.429993</ele>
<time>2024-12-11T09:51:52.266Z</time>
</trkpt>
<trkpt lat="30.9045800" lon="34.9165600">
<ele>663.619995</ele>
<time>2024-12-11T09:51:52.266Z</time>
</trkpt>
<trkpt lat="30.9043000" lon="34.9165800">
<ele>664.690002</ele>
<time>2024-12-11T09:51:52.266Z</time>
</trkpt>
<trkpt lat="30.9036500" lon="34.9165300">
<ele>661.409973</ele>
<time>2024-12-11T09:51:52.266Z</time>
</trkpt>
<trkpt lat="30.9033900" lon="34.9165300">
<ele>658.739990</ele>
<time>2024-12-11T09:51:52.266Z</time>
</trkpt>
<trkpt lat="30.9032200" lon="34.9164900">
<ele>656.500000</ele>
<time>2024-12-11T09:51:52.266Z</time>
</trkpt>
<trkpt lat="30.9030600" lon="34.9164800">
<ele>654.700012</ele>
<time>2024-12-11T09:51:52.266Z</time>
</trkpt>
<trkpt lat="30.9026400" lon="34.9163900">
<ele>662.980042</ele>
<time>2024-12-11T09:51:52.266Z</time>
</trkpt>
<trkpt lat="30.9020500" lon="34.9161300">
<ele>675.390015</ele>
<time>2024-12-11T09:51:52.266Z</time>
</trkpt>
<trkpt lat="30.9019300" lon="34.9159900">
<ele>677.659973</ele>
<time>2024-12-11T09:51:52.266Z</time>
</trkpt>
<trkpt lat="30.9019000" lon="34.9159000">
<ele>678.150024</ele>
<time>2024-12-11T09:51:52.266Z</time>
</trkpt>
<trkpt lat="30.9017900" lon="34.9157300">
<ele>677.609985</ele>
<time>2024-12-11T09:51:52.266Z</time>
</trkpt>
<trkpt lat="30.9017100" lon="34.9154700">
<ele>676.710022</ele>
<time>2024-12-11T09:51:52.266Z</time>
</trkpt>
<trkpt lat="30.9015600" lon="34.9153100">
<ele>678.709961</ele>
<time>2024-12-11T09:51:52.266Z</time>
</trkpt>
<trkpt lat="30.9011300" lon="34.9150000">
<ele>684.000000</ele>
<time>2024-12-11T09:51:52.266Z</time>
</trkpt>
<trkpt lat="30.9007100" lon="34.9148300">
<ele>684.089966</ele>
<time>2024-12-11T09:51:52.266Z</time>
</trkpt>
<trkpt lat="30.8995900" lon="34.9145300">
<ele>676.450012</ele>
<time>2024-12-11T09:51:52.266Z</time>
</trkpt>
<trkpt lat="30.8992300" lon="34.9143300">
<ele>677.230042</ele>
<time>2024-12-11T09:51:52.266Z</time>
</trkpt>
<trkpt lat="30.8989600" lon="34.9142700">
<ele>675.820007</ele>
<time>2024-12-11T09:51:52.266Z</time>
</trkpt>
<trkpt lat="30.8985100" lon="34.9142400">
<ele>674.500000</ele>
<time>2024-12-11T09:51:52.266Z</time>
</trkpt>
<trkpt lat="30.8981200" lon="34.9141200">
<ele>674.780029</ele>
<time>2024-12-11T09:51:52.266Z</time>
</trkpt>
<trkpt lat="30.8977500" lon="34.9139300">
<ele>685.299988</ele>
<time>2024-12-11T09:51:52.266Z</time>
</trkpt>
<trkpt lat="30.8975300" lon="34.9137600">
<ele>686.559998</ele>
<time>2024-12-11T09:51:52.266Z</time>
</trkpt>
<trkpt lat="30.8971900" lon="34.9136600">
<ele>686.290039</ele>
<time>2024-12-11T09:51:52.266Z</time>
</trkpt>
<trkpt lat="30.8968500" lon="34.9131900">
<ele>680.769958</ele>
<time>2024-12-11T09:51:52.266Z</time>
</trkpt>
<trkpt lat="30.8967400" lon="34.9129600">
<ele>677.840027</ele>
<time>2024-12-11T09:51:52.266Z</time>
</trkpt>
<trkpt lat="30.8964400" lon="34.9128200">
<ele>678.179993</ele>
<time>2024-12-11T09:51:52.266Z</time>
</trkpt>
<trkpt lat="30.8963700" lon="34.9125300">
<ele>674.630005</ele>
<time>2024-12-11T09:51:52.266Z</time>
</trkpt>
<trkpt lat="30.8962800" lon="34.9123600">
<ele>674.869995</ele>
<time>2024-12-11T09:51:52.266Z</time>
</trkpt>
<trkpt lat="30.8961200" lon="34.9121400">
<ele>677.450012</ele>
<time>2024-12-11T09:51:52.266Z</time>
</trkpt>
<trkpt lat="30.8954500" lon="34.9114200">
<ele>683.539978</ele>
<time>2024-12-11T09:51:52.266Z</time>
</trkpt>
<trkpt lat="30.8953400" lon="34.9111400">
<ele>684.460022</ele>
<time>2024-12-11T09:51:52.266Z</time>
</trkpt>
<trkpt lat="30.8952200" lon="34.9109900">
<ele>683.630005</ele>
<time>2024-12-11T09:51:52.266Z</time>
</trkpt>
<trkpt lat="30.8950100" lon="34.9109800">
<ele>680.669983</ele>
<time>2024-12-11T09:51:52.266Z</time>
</trkpt>
<trkpt lat="30.8948900" lon="34.9109500">
<ele>679.330017</ele>
<time>2024-12-11T09:51:52.266Z</time>
</trkpt>
<trkpt lat="30.8945200" lon="34.9109500">
<ele>670.400024</ele>
<time>2024-12-11T09:51:52.266Z</time>
</trkpt>
<trkpt lat="30.8941600" lon="34.9109300">
<ele>661.250000</ele>
<time>2024-12-11T09:51:52.266Z</time>
</trkpt>
<trkpt lat="30.8936300" lon="34.9108800">
<ele>660.460022</ele>
<time>2024-12-11T09:51:52.266Z</time>
</trkpt>
<trkpt lat="30.8935600" lon="34.9108800">
<ele>661.149963</ele>
<time>2024-12-11T09:51:52.266Z</time>
</trkpt>
<trkpt lat="30.8935000" lon="34.9109300">
<ele>661.229980</ele>
<time>2024-12-11T09:51:52.266Z</time>
</trkpt>
<trkpt lat="30.8935100" lon="34.9114500">
<ele>656.919983</ele>
<time>2024-12-11T09:51:52.266Z</time>
</trkpt>
<trkpt lat="30.8936400" lon="34.9118600">
<ele>656.109985</ele>
<time>2024-12-11T09:51:52.266Z</time>
</trkpt>
<trkpt lat="30.8936500" lon="34.9121800">
<ele>656.809998</ele>
<time>2024-12-11T09:51:52.266Z</time>
</trkpt>
<trkpt lat="30.8936200" lon="34.9124300">
<ele>655.450012</ele>
<time>2024-12-11T09:51:52.266Z</time>
</trkpt>
<trkpt lat="30.8932900" lon="34.9132400">
<ele>638.809998</ele>
<time>2024-12-11T09:51:52.266Z</time>
</trkpt>
<trkpt lat="30.8932300" lon="34.9140600">
<ele>634.139954</ele>
<time>2024-12-11T09:51:52.266Z</time>
</trkpt>
<trkpt lat="30.8932200" lon="34.9142000">
<ele>633.270020</ele>
<time>2024-12-11T09:51:52.266Z</time>
</trkpt>
<trkpt lat="30.8932600" lon="34.9145700">
<ele>631.630005</ele>
<time>2024-12-11T09:51:52.266Z</time>
</trkpt>
<trkpt lat="30.8932300" lon="34.9149700">
<ele>625.460022</ele>
<time>2024-12-11T09:51:52.266Z</time>
</trkpt>
<trkpt lat="30.8931400" lon="34.9153800">
<ele>618.390015</ele>
<time>2024-12-11T09:51:52.266Z</time>
</trkpt>
<trkpt lat="30.8929100" lon="34.9158100">
<ele>615.220032</ele>
<time>2024-12-11T09:51:52.266Z</time>
</trkpt>
<trkpt lat="30.8929000" lon="34.9160000">
<ele>616.679993</ele>
<time>2024-12-11T09:51:52.266Z</time>
</trkpt>
<trkpt lat="30.8929100" lon="34.9160500">
<ele>617.289978</ele>
<time>2024-12-11T09:51:52.266Z</time>
</trkpt>
<trkpt lat="30.8931600" lon="34.9161200">
<ele>617.929993</ele>
<time>2024-12-11T09:51:52.266Z</time>
</trkpt>
<trkpt lat="30.8932000" lon="34.9161700">
<ele>617.750000</ele>
<time>2024-12-11T09:51:52.266Z</time>
</trkpt>
<trkpt lat="30.8929300" lon="34.9164700">
<ele>622.099976</ele>
<time>2024-12-11T09:51:52.266Z</time>
</trkpt>
<trkpt lat="30.8926200" lon="34.9177900">
<ele>611.950012</ele>
<time>2024-12-11T09:51:52.266Z</time>
</trkpt>
<trkpt lat="30.8924500" lon="34.9181100">
<ele>614.089966</ele>
<time>2024-12-11T09:51:52.266Z</time>
</trkpt>
<trkpt lat="30.8924300" lon="34.9189500">
<ele>618.190002</ele>
<time>2024-12-11T09:51:52.266Z</time>
</trkpt>
<trkpt lat="30.8925000" lon="34.9192100">
<ele>611.909973</ele>
<time>2024-12-11T09:51:52.266Z</time>
</trkpt>
<trkpt lat="30.8925200" lon="34.9211800">
<ele>605.510010</ele>
<time>2024-12-11T09:51:52.266Z</time>
</trkpt>
<trkpt lat="30.8925700" lon="34.9213800">
<ele>603.479980</ele>
<time>2024-12-11T09:51:52.266Z</time>
</trkpt>
<trkpt lat="30.8929000" lon="34.9218800">
<ele>587.849976</ele>
<time>2024-12-11T09:51:52.266Z</time>
</trkpt>
<trkpt lat="30.8929200" lon="34.9221700">
<ele>587.090027</ele>
<time>2024-12-11T09:51:52.266Z</time>
</trkpt>
<trkpt lat="30.8933200" lon="34.9221300">
<ele>579.380005</ele>
<time>2024-12-11T09:51:52.266Z</time>
</trkpt>
<trkpt lat="30.8935400" lon="34.9221700">
<ele>570.100037</ele>
<time>2024-12-11T09:51:52.266Z</time>
</trkpt>
<trkpt lat="30.8935600" lon="34.9222800">
<ele>567.979980</ele>
<time>2024-12-11T09:51:52.266Z</time>
</trkpt>
<trkpt lat="30.8937100" lon="34.9222900">
<ele>563.020020</ele>
<time>2024-12-11T09:51:52.266Z</time>
</trkpt>
<trkpt lat="30.8939700" lon="34.9221600">
<ele>558.020020</ele>
<time>2024-12-11T09:51:52.266Z</time>
</trkpt>
<trkpt lat="30.8940100" lon="34.9221600">
<ele>557.200012</ele>
<time>2024-12-11T09:51:52.266Z</time>
</trkpt>
<trkpt lat="30.8944000" lon="34.9231500">
<ele>545.820007</ele>
<time>2024-12-11T09:51:52.266Z</time>
</trkpt>
<trkpt lat="30.8949800" lon="34.9232400">
<ele>544.099976</ele>
<time>2024-12-11T09:51:52.266Z</time>
</trkpt>
<trkpt lat="30.8951700" lon="34.9233500">
<ele>542.200012</ele>
<time>2024-12-11T09:51:52.266Z</time>
</trkpt>
<trkpt lat="30.8953500" lon="34.9236000">
<ele>539.369995</ele>
<time>2024-12-11T09:51:52.266Z</time>
</trkpt>
<trkpt lat="30.8955100" lon="34.9236000">
<ele>533.630005</ele>
<time>2024-12-11T09:51:52.266Z</time>
</trkpt>
<trkpt lat="30.8959600" lon="34.9233800">
<ele>525.330017</ele>
<time>2024-12-11T09:51:52.266Z</time>
</trkpt>
<trkpt lat="30.8962000" lon="34.9234000">
<ele>523.100037</ele>
<time>2024-12-11T09:51:52.266Z</time>
</trkpt>
<trkpt lat="30.8964900" lon="34.9235100">
<ele>520.500000</ele>
<time>2024-12-11T09:51:52.266Z</time>
</trkpt>
<trkpt lat="30.8965400" lon="34.9235600">
<ele>519.559998</ele>
<time>2024-12-11T09:51:52.266Z</time>
</trkpt>
<trkpt lat="30.8966500" lon="34.9239200">
<ele>519.099976</ele>
<time>2024-12-11T09:51:52.266Z</time>
</trkpt>
<trkpt lat="30.8967500" lon="34.9240600">
<ele>521.200012</ele>
<time>2024-12-11T09:51:52.266Z</time>
</trkpt>
<trkpt lat="30.8969700" lon="34.9241600">
<ele>524.539978</ele>
<time>2024-12-11T09:51:52.266Z</time>
</trkpt>
<trkpt lat="30.8972200" lon="34.9243400">
<ele>524.130005</ele>
<time>2024-12-11T09:51:52.266Z</time>
</trkpt>
<trkpt lat="30.8975100" lon="34.9248300">
<ele>520.709961</ele>
<time>2024-12-11T09:51:52.266Z</time>
</trkpt>
<trkpt lat="30.8986800" lon="34.9257400">
<ele>508.110016</ele>
<time>2024-12-11T09:51:52.266Z</time>
</trkpt>
<trkpt lat="30.8987200" lon="34.9261200">
<ele>505.559998</ele>
<time>2024-12-11T09:51:52.266Z</time>
</trkpt>
<trkpt lat="30.8988300" lon="34.9263500">
<ele>501.369995</ele>
<time>2024-12-11T09:51:52.266Z</time>
</trkpt>
<trkpt lat="30.8995300" lon="34.9267900">
<ele>494.790009</ele>
<time>2024-12-11T09:51:52.266Z</time>
</trkpt>
<trkpt lat="30.8997600" lon="34.9270800">
<ele>498.589996</ele>
<time>2024-12-11T09:51:52.266Z</time>
</trkpt>
<trkpt lat="30.8998500" lon="34.9271100">
<ele>500.130005</ele>
<time>2024-12-11T09:51:52.266Z</time>
</trkpt>
<trkpt lat="30.8998900" lon="34.9272200">
<ele>500.809998</ele>
<time>2024-12-11T09:51:52.266Z</time>
</trkpt>
<trkpt lat="30.9009300" lon="34.9282700">
<ele>492.969971</ele>
<time>2024-12-11T09:51:52.266Z</time>
</trkpt>
<trkpt lat="30.9011700" lon="34.9283900">
<ele>492.580017</ele>
<time>2024-12-11T09:51:52.266Z</time>
</trkpt>
<trkpt lat="30.9014200" lon="34.9287400">
<ele>493.300018</ele>
<time>2024-12-11T09:51:52.266Z</time>
</trkpt>
<trkpt lat="30.9022700" lon="34.9293400">
<ele>488.349976</ele>
<time>2024-12-11T09:51:52.266Z</time>
</trkpt>
<trkpt lat="30.9030300" lon="34.9300100">
<ele>470.870026</ele>
<time>2024-12-11T09:51:52.266Z</time>
</trkpt>
<trkpt lat="30.9032400" lon="34.9300400">
<ele>475.119995</ele>
<time>2024-12-11T09:51:52.266Z</time>
</trkpt>
<trkpt lat="30.9037800" lon="34.9302600">
<ele>485.219971</ele>
<time>2024-12-11T09:51:52.266Z</time>
</trkpt>
<trkpt lat="30.9040700" lon="34.9307000">
<ele>481.529999</ele>
<time>2024-12-11T09:51:52.266Z</time>
</trkpt>
<trkpt lat="30.9044500" lon="34.9315500">
<ele>467.899994</ele>
<time>2024-12-11T09:51:52.266Z</time>
</trkpt>
<trkpt lat="30.9052100" lon="34.9328500">
<ele>467.169983</ele>
<time>2024-12-11T09:51:52.266Z</time>
</trkpt>
<trkpt lat="30.9057200" lon="34.9339800">
<ele>468.369995</ele>
<time>2024-12-11T09:51:52.266Z</time>
</trkpt>
<trkpt lat="30.9061700" lon="34.9347500">
<ele>463.380005</ele>
<time>2024-12-11T09:51:52.266Z</time>
</trkpt>
<trkpt lat="30.9067400" lon="34.9356500">
<ele>458.249969</ele>
<time>2024-12-11T09:51:52.266Z</time>
</trkpt>
<trkpt lat="30.9067500" lon="34.9359100">
<ele>460.670013</ele>
<time>2024-12-11T09:51:52.266Z</time>
</trkpt>
<trkpt lat="30.9077800" lon="34.9380300">
<ele>455.460022</ele>
<time>2024-12-11T09:51:52.266Z</time>
</trkpt>
<trkpt lat="30.9080400" lon="34.9385300">
<ele>448.839996</ele>
<time>2024-12-11T09:51:52.266Z</time>
</trkpt>
<trkpt lat="30.9089200" lon="34.9398600">
<ele>453.040009</ele>
<time>2024-12-11T09:51:52.266Z</time>
</trkpt>
<trkpt lat="30.9093000" lon="34.9407300">
<ele>444.570007</ele>
<time>2024-12-11T09:51:52.266Z</time>
</trkpt>
<trkpt lat="30.9096100" lon="34.9412400">
<ele>435.850006</ele>
<time>2024-12-11T09:51:52.266Z</time>
</trkpt>
<trkpt lat="30.9097100" lon="34.9416000">
<ele>439.049988</ele>
<time>2024-12-11T09:51:52.266Z</time>
</trkpt>
<trkpt lat="30.9100000" lon="34.9419400">
<ele>434.980011</ele>
<time>2024-12-11T09:51:52.266Z</time>
</trkpt>
<trkpt lat="30.9102200" lon="34.9424600">
<ele>441.880005</ele>
<time>2024-12-11T09:51:52.266Z</time>
</trkpt>
<trkpt lat="30.9107900" lon="34.9434000">
<ele>439.880005</ele>
<time>2024-12-11T09:51:52.266Z</time>
</trkpt>
<trkpt lat="30.9112000" lon="34.9444300">
<ele>440.640015</ele>
<time>2024-12-11T09:51:52.266Z</time>
</trkpt>
<trkpt lat="30.9118200" lon="34.9467700">
<ele>437.279999</ele>
<time>2024-12-11T09:51:52.266Z</time>
</trkpt>
<trkpt lat="30.9122100" lon="34.9479700">
<ele>427.980011</ele>
<time>2024-12-11T09:51:52.266Z</time>
</trkpt>
<trkpt lat="30.9124000" lon="34.9489500">
<ele>417.660004</ele>
<time>2024-12-11T09:51:52.266Z</time>
</trkpt>
<trkpt lat="30.9128400" lon="34.9504200">
<ele>426.899994</ele>
<time>2024-12-11T09:51:52.266Z</time>
</trkpt>
<trkpt lat="30.9134100" lon="34.9528700">
<ele>436.739990</ele>
<time>2024-12-11T09:51:52.266Z</time>
</trkpt>
<trkpt lat="30.9147500" lon="34.9556700">
<ele>428.110016</ele>
<time>2024-12-11T09:51:52.266Z</time>
</trkpt>
<trkpt lat="30.9147900" lon="34.9559400">
<ele>429.650024</ele>
<time>2024-12-11T09:51:52.266Z</time>
</trkpt>
<trkpt lat="30.9153700" lon="34.9569100">
<ele>426.549988</ele>
<time>2024-12-11T09:51:52.266Z</time>
</trkpt>
<trkpt lat="30.9154500" lon="34.9576400">
<ele>430.769989</ele>
<time>2024-12-11T09:51:52.266Z</time>
</trkpt>
<trkpt lat="30.9157400" lon="34.9577800">
<ele>436.360016</ele>
<time>2024-12-11T09:51:52.266Z</time>
</trkpt>
<trkpt lat="30.9162500" lon="34.9586900">
<ele>439.509979</ele>
<time>2024-12-11T09:51:52.266Z</time>
</trkpt>
<trkpt lat="30.9163200" lon="34.9594300">
<ele>428.710022</ele>
<time>2024-12-11T09:51:52.266Z</time>
</trkpt>
<trkpt lat="30.9165100" lon="34.9597200">
<ele>428.329987</ele>
<time>2024-12-11T09:51:52.266Z</time>
</trkpt>
<trkpt lat="30.9174000" lon="34.9618000">
<ele>425.849976</ele>
<time>2024-12-11T09:51:52.266Z</time>
</trkpt>
<trkpt lat="30.9174900" lon="34.9623100">
<ele>420.779999</ele>
<time>2024-12-11T09:51:52.266Z</time>
</trkpt>
<trkpt lat="30.9177600" lon="34.9644000">
<ele>428.459991</ele>
<time>2024-12-11T09:51:52.266Z</time>
</trkpt>
<trkpt lat="30.9178600" lon="34.9647000">
<ele>429.699982</ele>
<time>2024-12-11T09:51:52.266Z</time>
</trkpt>
<trkpt lat="30.9182300" lon="34.9653100">
<ele>421.609985</ele>
<time>2024-12-11T09:51:52.266Z</time>
</trkpt>
<trkpt lat="30.9185000" lon="34.9659400">
<ele>428.339996</ele>
<time>2024-12-11T09:51:52.266Z</time>
</trkpt>
<trkpt lat="30.9195800" lon="34.9686500">
<ele>419.370026</ele>
<time>2024-12-11T09:51:52.266Z</time>
</trkpt>
<trkpt lat="30.9196300" lon="34.9694500">
<ele>414.690002</ele>
<time>2024-12-11T09:51:52.266Z</time>
</trkpt>
<trkpt lat="30.9198400" lon="34.9699200">
<ele>414.169983</ele>
<time>2024-12-11T09:51:52.266Z</time>
</trkpt>
<trkpt lat="30.9201500" lon="34.9710400">
<ele>415.109985</ele>
<time>2024-12-11T09:51:52.266Z</time>
</trkpt>
<trkpt lat="30.9202600" lon="34.9711500">
<ele>412.010010</ele>
<time>2024-12-11T09:51:52.266Z</time>
</trkpt>
<trkpt lat="30.9205100" lon="34.9712400">
<ele>404.380005</ele>
<time>2024-12-11T09:51:52.266Z</time>
</trkpt>
<trkpt lat="30.9214800" lon="34.9723100">
<ele>398.600006</ele>
<time>2024-12-11T09:51:52.266Z</time>
</trkpt>
<trkpt lat="30.9216400" lon="34.9729300">
<ele>397.859985</ele>
<time>2024-12-11T09:51:52.266Z</time>
</trkpt>
<trkpt lat="30.9219000" lon="34.9734000">
<ele>398.879974</ele>
<time>2024-12-11T09:51:52.266Z</time>
</trkpt>
<trkpt lat="30.9223100" lon="34.9738100">
<ele>396.399994</ele>
<time>2024-12-11T09:51:52.266Z</time>
</trkpt>
<trkpt lat="30.9228500" lon="34.9739100">
<ele>399.019989</ele>
<time>2024-12-11T09:51:52.266Z</time>
</trkpt>
<trkpt lat="30.9238000" lon="34.9744300">
<ele>398.329987</ele>
<time>2024-12-11T09:51:52.266Z</time>
</trkpt>
<trkpt lat="30.9240800" lon="34.9747700">
<ele>397.619995</ele>
<time>2024-12-11T09:51:52.266Z</time>
</trkpt>
<trkpt lat="30.9247900" lon="34.9752800">
<ele>396.510010</ele>
<time>2024-12-11T09:51:52.266Z</time>
</trkpt>
<trkpt lat="30.9252900" lon="34.9754900">
<ele>391.049988</ele>
<time>2024-12-11T09:51:52.266Z</time>
</trkpt>
<trkpt lat="30.9256600" lon="34.9758000">
<ele>383.399994</ele>
<time>2024-12-11T09:51:52.266Z</time>
</trkpt>
<trkpt lat="30.9262700" lon="34.9760800">
<ele>387.449982</ele>
<time>2024-12-11T09:51:52.266Z</time>
</trkpt>
<trkpt lat="30.9273700" lon="34.9767900">
<ele>381.419983</ele>
<time>2024-12-11T09:51:52.266Z</time>
</trkpt>
<trkpt lat="30.9276200" lon="34.9769900">
<ele>381.029999</ele>
<time>2024-12-11T09:51:52.266Z</time>
</trkpt>
<trkpt lat="30.9282400" lon="34.9776400">
<ele>384.650024</ele>
<time>2024-12-11T09:51:52.266Z</time>
</trkpt>
<trkpt lat="30.9298700" lon="34.9788500">
<ele>375.029968</ele>
<time>2024-12-11T09:51:52.266Z</time>
</trkpt>
<trkpt lat="30.9300000" lon="34.9788900">
<ele>373.000000</ele>
<time>2024-12-11T09:51:52.266Z</time>
</trkpt>
<trkpt lat="30.9307000" lon="34.9789600">
<ele>379.470001</ele>
<time>2024-12-11T09:51:52.266Z</time>
</trkpt>
<trkpt lat="30.9320700" lon="34.9794800">
<ele>376.059998</ele>
<time>2024-12-11T09:51:52.266Z</time>
</trkpt>
<trkpt lat="30.9330400" lon="34.9802300">
<ele>369.949982</ele>
<time>2024-12-11T09:51:52.266Z</time>
</trkpt>
<trkpt lat="30.9341900" lon="34.9808800">
<ele>369.649994</ele>
<time>2024-12-11T09:51:52.266Z</time>
</trkpt>
<trkpt lat="30.9347900" lon="34.9814500">
<ele>371.640015</ele>
<time>2024-12-11T09:51:52.266Z</time>
</trkpt>
<trkpt lat="30.9358700" lon="34.9819600">
<ele>366.639984</ele>
<time>2024-12-11T09:51:52.266Z</time>
</trkpt>
<trkpt lat="30.9366100" lon="34.9824900">
<ele>368.339996</ele>
<time>2024-12-11T09:51:52.266Z</time>
</trkpt>
<trkpt lat="30.9375900" lon="34.9827200">
<ele>361.399994</ele>
<time>2024-12-11T09:51:52.266Z</time>
</trkpt>
<trkpt lat="30.9380500" lon="34.9827300">
<ele>361.519989</ele>
<time>2024-12-11T09:51:52.266Z</time>
</trkpt>
<trkpt lat="30.9402400" lon="34.9839000">
<ele>353.910004</ele>
<time>2024-12-11T09:51:52.266Z</time>
</trkpt>
<trkpt lat="30.9410000" lon="34.9845400">
<ele>346.540009</ele>
<time>2024-12-11T09:51:52.266Z</time>
</trkpt>
<trkpt lat="30.9411900" lon="34.9852000">
<ele>345.260010</ele>
<time>2024-12-11T09:51:52.266Z</time>
</trkpt>
<trkpt lat="30.9417800" lon="34.9855500">
<ele>342.779999</ele>
<time>2024-12-11T09:51:52.266Z</time>
</trkpt>
<trkpt lat="30.9433000" lon="34.9849500">
<ele>341.100006</ele>
<time>2024-12-11T09:51:52.266Z</time>
</trkpt>
<trkpt lat="30.9441400" lon="34.9848300">
<ele>339.880005</ele>
<time>2024-12-11T09:51:52.266Z</time>
</trkpt>
<trkpt lat="30.9453300" lon="34.9847700">
<ele>340.190002</ele>
<time>2024-12-11T09:51:52.266Z</time>
</trkpt>
<trkpt lat="30.9462600" lon="34.9846900">
<ele>339.419983</ele>
<time>2024-12-11T09:51:52.266Z</time>
</trkpt>
<trkpt lat="30.9463500" lon="34.9846400">
<ele>337.319977</ele>
<time>2024-12-11T09:51:52.266Z</time>
</trkpt>
<trkpt lat="30.9466800" lon="34.9845800">
<ele>336.799988</ele>
<time>2024-12-11T09:51:52.266Z</time>
</trkpt>
<trkpt lat="30.9469100" lon="34.9843900">
<ele>340.559998</ele>
<time>2024-12-11T09:51:52.266Z</time>
</trkpt>
<trkpt lat="30.9473700" lon="34.9836500">
<ele>348.929993</ele>
<time>2024-12-11T09:51:52.266Z</time>
</trkpt>
<trkpt lat="30.9479000" lon="34.9830600">
<ele>352.829987</ele>
<time>2024-12-11T09:51:52.266Z</time>
</trkpt>
<trkpt lat="30.9481100" lon="34.9829800">
<ele>354.339996</ele>
<time>2024-12-11T09:51:52.266Z</time>
</trkpt>
<trkpt lat="30.9481500" lon="34.9827400">
<ele>354.290009</ele>
<time>2024-12-11T09:51:52.266Z</time>
</trkpt>
<trkpt lat="30.9482200" lon="34.9825600">
<ele>353.519989</ele>
<time>2024-12-11T09:51:52.266Z</time>
</trkpt>
<trkpt lat="30.9486600" lon="34.9820700">
<ele>352.760010</ele>
<time>2024-12-11T09:51:52.266Z</time>
</trkpt>
<trkpt lat="30.9491400" lon="34.9816900">
<ele>363.239990</ele>
<time>2024-12-11T09:51:52.266Z</time>
</trkpt>
<trkpt lat="30.9495200" lon="34.9815000">
<ele>364.740021</ele>
<time>2024-12-11T09:51:52.266Z</time>
</trkpt>
<trkpt lat="30.9499100" lon="34.9813600">
<ele>365.149994</ele>
<time>2024-12-11T09:51:52.266Z</time>
</trkpt>
<trkpt lat="30.9509300" lon="34.9809400">
<ele>363.910004</ele>
<time>2024-12-11T09:51:52.266Z</time>
</trkpt>
<trkpt lat="30.9513200" lon="34.9809400">
<ele>365.040009</ele>
<time>2024-12-11T09:51:52.266Z</time>
</trkpt>
<trkpt lat="30.9522700" lon="34.9810600">
<ele>352.819977</ele>
<time>2024-12-11T09:51:52.266Z</time>
</trkpt>
<trkpt lat="30.9537200" lon="34.9811400">
<ele>362.720001</ele>
<time>2024-12-11T09:51:52.266Z</time>
</trkpt>
<trkpt lat="30.9541200" lon="34.9812100">
<ele>366.550018</ele>
<time>2024-12-11T09:51:52.266Z</time>
</trkpt>
<trkpt lat="30.9557300" lon="34.9812800">
<ele>380.599976</ele>
<time>2024-12-11T09:51:52.266Z</time>
</trkpt>
<trkpt lat="30.9563100" lon="34.9813700">
<ele>375.940002</ele>
<time>2024-12-11T09:51:52.266Z</time>
</trkpt>
<trkpt lat="30.9572200" lon="34.9814200">
<ele>388.750000</ele>
<time>2024-12-11T09:51:52.266Z</time>
</trkpt>
<trkpt lat="30.9590200" lon="34.9816600">
<ele>406.860016</ele>
<time>2024-12-11T09:51:52.266Z</time>
</trkpt>
<trkpt lat="30.9595200" lon="34.9821200">
<ele>413.170013</ele>
<time>2024-12-11T09:51:52.266Z</time>
</trkpt>
<trkpt lat="30.9599800" lon="34.9827200">
<ele>416.760010</ele>
<time>2024-12-11T09:51:52.266Z</time>
</trkpt>
<trkpt lat="30.9602900" lon="34.9823500">
<ele>420.400024</ele>
<time>2024-12-11T09:51:52.266Z</time>
</trkpt>
<trkpt lat="30.9605500" lon="34.9821800">
<ele>417.559998</ele>
<time>2024-12-11T09:51:52.266Z</time>
</trkpt>
<trkpt lat="30.9608700" lon="34.9821600">
<ele>421.550018</ele>
<time>2024-12-11T09:51:52.266Z</time>
</trkpt>
<trkpt lat="30.9609200" lon="34.9821800">
<ele>421.699982</ele>
<time>2024-12-11T09:51:52.266Z</time>
</trkpt>
<trkpt lat="30.9608100" lon="34.9824500">
<ele>422.079987</ele>
<time>2024-12-11T09:51:52.266Z</time>
</trkpt>
<trkpt lat="30.9609200" lon="34.9821800">
<ele>421.699982</ele>
<time>2024-12-11T09:51:52.266Z</time>
</trkpt>
<trkpt lat="30.9608700" lon="34.9821600">
<ele>421.550018</ele>
<time>2024-12-11T09:51:52.266Z</time>
</trkpt>
<trkpt lat="30.9605400" lon="34.9821900">
<ele>417.709991</ele>
<time>2024-12-11T09:51:52.266Z</time>
</trkpt>
<trkpt lat="30.9603000" lon="34.9823800">
<ele>420.759979</ele>
<time>2024-12-11T09:51:52.266Z</time>
</trkpt>
<trkpt lat="30.9600400" lon="34.9827800">
<ele>417.709991</ele>
<time>2024-12-11T09:51:52.266Z</time>
</trkpt>
<trkpt lat="30.9601400" lon="34.9829700">
<ele>417.779999</ele>
<time>2024-12-11T09:51:52.266Z</time>
</trkpt>
<trkpt lat="30.9604800" lon="34.9833200">
<ele>412.250000</ele>
<time>2024-12-11T09:51:52.266Z</time>
</trkpt>
<trkpt lat="30.9610500" lon="34.9836800">
<ele>418.619995</ele>
<time>2024-12-11T09:51:52.266Z</time>
</trkpt>
<trkpt lat="30.9616400" lon="34.9829800">
<ele>427.699982</ele>
<time>2024-12-11T09:51:52.266Z</time>
</trkpt>
<trkpt lat="30.9621000" lon="34.9824900">
<ele>424.080017</ele>
<time>2024-12-11T09:51:52.266Z</time>
</trkpt>
<trkpt lat="30.9624100" lon="34.9822600">
<ele>425.580017</ele>
<time>2024-12-11T09:51:52.266Z</time>
</trkpt>
<trkpt lat="30.9630600" lon="34.9819300">
<ele>429.000000</ele>
<time>2024-12-11T09:51:52.266Z</time>
</trkpt>
<trkpt lat="30.9639500" lon="34.9815700">
<ele>430.939972</ele>
<time>2024-12-11T09:51:52.266Z</time>
</trkpt>
<trkpt lat="30.9670600" lon="34.9806000">
<ele>465.010010</ele>
<time>2024-12-11T09:51:52.266Z</time>
</trkpt>
<trkpt lat="30.9672100" lon="34.9805400">
<ele>468.480011</ele>
<time>2024-12-11T09:51:52.266Z</time>
</trkpt>
<trkpt lat="30.9676700" lon="34.9800300">
<ele>472.399994</ele>
<time>2024-12-11T09:51:52.266Z</time>
</trkpt>
<trkpt lat="30.9681300" lon="34.9796800">
<ele>483.920013</ele>
<time>2024-12-11T09:51:52.266Z</time>
</trkpt>
<trkpt lat="30.9685700" lon="34.9794200">
<ele>493.900024</ele>
<time>2024-12-11T09:51:52.266Z</time>
</trkpt>
<trkpt lat="30.9686300" lon="34.9787100">
<ele>495.839996</ele>
<time>2024-12-11T09:51:52.266Z</time>
</trkpt>
<trkpt lat="30.9688500" lon="34.9787200">
<ele>506.339996</ele>
<time>2024-12-11T09:51:52.266Z</time>
</trkpt>
<trkpt lat="30.9688900" lon="34.9790500">
<ele>506.450012</ele>
<time>2024-12-11T09:51:52.266Z</time>
</trkpt>
<trkpt lat="30.9689000" lon="34.9791900">
<ele>506.280029</ele>
<time>2024-12-11T09:51:52.266Z</time>
</trkpt>
<trkpt lat="30.9687400" lon="34.9798100">
<ele>504.050018</ele>
<time>2024-12-11T09:51:52.266Z</time>
</trkpt>
<trkpt lat="30.9687300" lon="34.9803600">
<ele>500.320007</ele>
<time>2024-12-11T09:51:52.266Z</time>
</trkpt>
<trkpt lat="30.9689100" lon="34.9803600">
<ele>504.010010</ele>
<time>2024-12-11T09:51:52.266Z</time>
</trkpt>
<trkpt lat="30.9689500" lon="34.9803200">
<ele>505.939972</ele>
<time>2024-12-11T09:51:52.266Z</time>
</trkpt>
<trkpt lat="30.9690100" lon="34.9799100">
<ele>510.440002</ele>
<time>2024-12-11T09:51:52.266Z</time>
</trkpt>
<trkpt lat="30.9693000" lon="34.9793800">
<ele>517.729980</ele>
<time>2024-12-11T09:51:52.266Z</time>
</trkpt>
<trkpt lat="30.9693000" lon="34.9791200">
<ele>519.489990</ele>
<time>2024-12-11T09:51:52.266Z</time>
</trkpt>
<trkpt lat="30.9693000" lon="34.9783900">
<ele>527.349976</ele>
<time>2024-12-11T09:51:52.266Z</time>
</trkpt>
<trkpt lat="30.9692900" lon="34.9781800">
<ele>530.429993</ele>
<time>2024-12-11T09:51:52.266Z</time>
</trkpt>
<trkpt lat="30.9690000" lon="34.9778300">
<ele>527.880005</ele>
<time>2024-12-11T09:51:52.266Z</time>
</trkpt>
<trkpt lat="30.9690000" lon="34.9773000">
<ele>535.429993</ele>
<time>2024-12-11T09:51:52.266Z</time>
</trkpt>
<trkpt lat="30.9695900" lon="34.9767300">
<ele>557.299988</ele>
<time>2024-12-11T09:51:52.266Z</time>
</trkpt>
<trkpt lat="30.9696200" lon="34.9761200">
<ele>551.390015</ele>
<time>2024-12-11T09:51:52.266Z</time>
</trkpt>
<trkpt lat="30.9702000" lon="34.9761000">
<ele>567.440002</ele>
<time>2024-12-11T09:51:52.266Z</time>
</trkpt>
<trkpt lat="30.9703100" lon="34.9760200">
<ele>570.830017</ele>
<time>2024-12-11T09:51:52.266Z</time>
</trkpt>
<trkpt lat="30.9704200" lon="34.9757000">
<ele>571.010010</ele>
<time>2024-12-11T09:51:52.266Z</time>
</trkpt>
<trkpt lat="30.9707300" lon="34.9744200">
<ele>558.469971</ele>
<time>2024-12-11T09:51:52.266Z</time>
</trkpt>
<trkpt lat="30.9717800" lon="34.9737800">
<ele>583.000000</ele>
<time>2024-12-11T09:51:52.266Z</time>
</trkpt>
<trkpt lat="30.9718000" lon="34.9735900">
<ele>582.359985</ele>
<time>2024-12-11T09:51:52.266Z</time>
</trkpt>
<trkpt lat="30.9717900" lon="34.9728300">
<ele>580.989990</ele>
<time>2024-12-11T09:51:52.266Z</time>
</trkpt>
<trkpt lat="30.9717500" lon="34.9715700">
<ele>583.440002</ele>
<time>2024-12-11T09:51:52.266Z</time>
</trkpt>
<trkpt lat="30.9715600" lon="34.9716300">
<ele>580.479980</ele>
<time>2024-12-11T09:51:52.266Z</time>
</trkpt>
<trkpt lat="30.9711700" lon="34.9722400">
<ele>578.970032</ele>
<time>2024-12-11T09:51:52.266Z</time>
</trkpt>
<trkpt lat="30.9709600" lon="34.9722600">
<ele>582.059998</ele>
<time>2024-12-11T09:51:52.266Z</time>
</trkpt>
<trkpt lat="30.9703200" lon="34.9722600">
<ele>594.010010</ele>
<time>2024-12-11T09:51:52.266Z</time>
</trkpt>
<trkpt lat="30.9698700" lon="34.9720600">
<ele>596.250000</ele>
<time>2024-12-11T09:51:52.266Z</time>
</trkpt>
<trkpt lat="30.9696800" lon="34.9720300">
<ele>589.400024</ele>
<time>2024-12-11T09:51:52.266Z</time>
</trkpt>
<trkpt lat="30.9692400" lon="34.9717800">
<ele>586.830017</ele>
<time>2024-12-11T09:51:52.266Z</time>
</trkpt>
<trkpt lat="30.9691200" lon="34.9714400">
<ele>590.010010</ele>
<time>2024-12-11T09:51:52.266Z</time>
</trkpt>
<trkpt lat="30.9691000" lon="34.9712000">
<ele>589.059998</ele>
<time>2024-12-11T09:51:52.266Z</time>
</trkpt>
<trkpt lat="30.9690500" lon="34.9711400">
<ele>588.929993</ele>
<time>2024-12-11T09:51:52.266Z</time>
</trkpt>
<trkpt lat="30.9689000" lon="34.9711100">
<ele>589.929993</ele>
<time>2024-12-11T09:51:52.266Z</time>
</trkpt>
<trkpt lat="30.9686000" lon="34.9709800">
<ele>594.070007</ele>
<time>2024-12-11T09:51:52.266Z</time>
</trkpt>
<trkpt lat="30.9681900" lon="34.9710000">
<ele>598.190002</ele>
<time>2024-12-11T09:51:52.266Z</time>
</trkpt>
<trkpt lat="30.9679900" lon="34.9709800">
<ele>599.030029</ele>
<time>2024-12-11T09:51:52.266Z</time>
</trkpt>
<trkpt lat="30.9675900" lon="34.9705100">
<ele>611.549988</ele>
<time>2024-12-11T09:51:52.266Z</time>
</trkpt>
<trkpt lat="30.9674100" lon="34.9704600">
<ele>613.929993</ele>
<time>2024-12-11T09:51:52.266Z</time>
</trkpt>
<trkpt lat="30.9667100" lon="34.9704000">
<ele>616.669983</ele>
<time>2024-12-11T09:51:52.266Z</time>
</trkpt>
<trkpt lat="30.9666800" lon="34.9702500">
<ele>617.239990</ele>
<time>2024-12-11T09:51:52.266Z</time>
</trkpt>
<trkpt lat="30.9666500" lon="34.9693000">
<ele>621.440002</ele>
<time>2024-12-11T09:51:52.266Z</time>
</trkpt>
<trkpt lat="30.9666600" lon="34.9690200">
<ele>619.609985</ele>
<time>2024-12-11T09:51:52.266Z</time>
</trkpt>
<trkpt lat="30.9666300" lon="34.9674400">
<ele>618.190002</ele>
<time>2024-12-11T09:51:52.266Z</time>
</trkpt>
<trkpt lat="30.9665200" lon="34.9670700">
<ele>621.080017</ele>
<time>2024-12-11T09:51:52.266Z</time>
</trkpt>
<trkpt lat="30.9661500" lon="34.9670600">
<ele>628.820007</ele>
<time>2024-12-11T09:51:52.266Z</time>
</trkpt>
<trkpt lat="30.9660700" lon="34.9670500">
<ele>630.109985</ele>
<time>2024-12-11T09:51:52.266Z</time>
</trkpt>
<trkpt lat="30.9660100" lon="34.9664800">
<ele>624.799988</ele>
<time>2024-12-11T09:51:52.266Z</time>
</trkpt>
<trkpt lat="30.9660200" lon="34.9660000">
<ele>618.650024</ele>
<time>2024-12-11T09:51:52.266Z</time>
</trkpt>
<trkpt lat="30.9659900" lon="34.9659200">
<ele>618.159973</ele>
<time>2024-12-11T09:51:52.266Z</time>
</trkpt>
<trkpt lat="30.9656500" lon="34.9659200">
<ele>622.400024</ele>
<time>2024-12-11T09:51:52.266Z</time>
</trkpt>
<trkpt lat="30.9651200" lon="34.9659100">
<ele>620.299988</ele>
<time>2024-12-11T09:51:52.266Z</time>
</trkpt>
<trkpt lat="30.9651100" lon="34.9657000">
<ele>619.520020</ele>
<time>2024-12-11T09:51:52.266Z</time>
</trkpt>
<trkpt lat="30.9652100" lon="34.9647500">
<ele>616.150024</ele>
<time>2024-12-11T09:51:52.266Z</time>
</trkpt>
<trkpt lat="30.9646900" lon="34.9648400">
<ele>619.200012</ele>
<time>2024-12-11T09:51:52.266Z</time>
</trkpt>
<trkpt lat="30.9641000" lon="34.9649200">
<ele>633.160034</ele>
<time>2024-12-11T09:51:52.266Z</time>
</trkpt>
<trkpt lat="30.9640800" lon="34.9647400">
<ele>633.250000</ele>
<time>2024-12-11T09:51:52.266Z</time>
</trkpt>
<trkpt lat="30.9641000" lon="34.9644800">
<ele>632.299988</ele>
<time>2024-12-11T09:51:52.266Z</time>
</trkpt>
<trkpt lat="30.9640900" lon="34.9641500">
<ele>632.489990</ele>
<time>2024-12-11T09:51:52.266Z</time>
</trkpt>
<trkpt lat="30.9641800" lon="34.9638300">
<ele>631.170044</ele>
<time>2024-12-11T09:51:52.266Z</time>
</trkpt>
<trkpt lat="30.9641900" lon="34.9631000">
<ele>638.010010</ele>
<time>2024-12-11T09:51:52.266Z</time>
</trkpt>
<trkpt lat="30.9643200" lon="34.9627800">
<ele>635.679993</ele>
<time>2024-12-11T09:51:52.266Z</time>
</trkpt>
<trkpt lat="30.9644400" lon="34.9627600">
<ele>636.250000</ele>
<time>2024-12-11T09:51:52.266Z</time>
</trkpt>
<trkpt lat="30.9647500" lon="34.9627500">
<ele>629.750000</ele>
<time>2024-12-11T09:51:52.266Z</time>
</trkpt>
<trkpt lat="30.9648700" lon="34.9627400">
<ele>626.030029</ele>
<time>2024-12-11T09:51:52.266Z</time>
</trkpt>
<trkpt lat="30.9653000" lon="34.9622200">
<ele>619.210022</ele>
<time>2024-12-11T09:51:52.266Z</time>
</trkpt>
<trkpt lat="30.9654200" lon="34.9622000">
<ele>620.210022</ele>
<time>2024-12-11T09:51:52.266Z</time>
</trkpt>
<trkpt lat="30.9654500" lon="34.9621700">
<ele>620.059998</ele>
<time>2024-12-11T09:51:52.266Z</time>
</trkpt>
<trkpt lat="30.9655000" lon="34.9608600">
<ele>606.270020</ele>
<time>2024-12-11T09:51:52.266Z</time>
</trkpt>
<trkpt lat="30.9655300" lon="34.9589700">
<ele>584.340027</ele>
<time>2024-12-11T09:51:52.266Z</time>
</trkpt>
<trkpt lat="30.9656400" lon="34.9587300">
<ele>580.750000</ele>
<time>2024-12-11T09:51:52.266Z</time>
</trkpt>
<trkpt lat="30.9658600" lon="34.9584700">
<ele>578.809998</ele>
<time>2024-12-11T09:51:52.266Z</time>
</trkpt>
<trkpt lat="30.9659000" lon="34.9580400">
<ele>578.809998</ele>
<time>2024-12-11T09:51:52.266Z</time>
</trkpt>
<trkpt lat="30.9663500" lon="34.9575000">
<ele>571.419983</ele>
<time>2024-12-11T09:51:52.266Z</time>
</trkpt>
<trkpt lat="30.9665300" lon="34.9574700">
<ele>571.529968</ele>
<time>2024-12-11T09:51:52.266Z</time>
</trkpt>
<trkpt lat="30.9665700" lon="34.9574300">
<ele>570.979980</ele>
<time>2024-12-11T09:51:52.266Z</time>
</trkpt>
<trkpt lat="30.9668800" lon="34.9568200">
<ele>565.829956</ele>
<time>2024-12-11T09:51:52.266Z</time>
</trkpt>
<trkpt lat="30.9669600" lon="34.9567500">
<ele>564.700012</ele>
<time>2024-12-11T09:51:52.266Z</time>
</trkpt>
<trkpt lat="30.9673600" lon="34.9565900">
<ele>553.059998</ele>
<time>2024-12-11T09:51:52.266Z</time>
</trkpt>
<trkpt lat="30.9684400" lon="34.9565600">
<ele>543.119995</ele>
<time>2024-12-11T09:51:52.266Z</time>
</trkpt>
<trkpt lat="30.9692900" lon="34.9564000">
<ele>550.130005</ele>
<time>2024-12-11T09:51:52.266Z</time>
</trkpt>
<trkpt lat="30.9694000" lon="34.9562900">
<ele>551.739990</ele>
<time>2024-12-11T09:51:52.266Z</time>
</trkpt>
<trkpt lat="30.9694900" lon="34.9560800">
<ele>551.210022</ele>
<time>2024-12-11T09:51:52.266Z</time>
</trkpt>
<trkpt lat="30.9696400" lon="34.9558700">
<ele>552.359985</ele>
<time>2024-12-11T09:51:52.266Z</time>
</trkpt>
<trkpt lat="30.9696600" lon="34.9552000">
<ele>554.510010</ele>
<time>2024-12-11T09:51:52.266Z</time>
</trkpt>
<trkpt lat="30.9696400" lon="34.9544400">
<ele>548.809998</ele>
<time>2024-12-11T09:51:52.266Z</time>
</trkpt>
<trkpt lat="30.9695500" lon="34.9540700">
<ele>552.030029</ele>
<time>2024-12-11T09:51:52.266Z</time>
</trkpt>
<trkpt lat="30.9695200" lon="34.9537200">
<ele>555.030029</ele>
<time>2024-12-11T09:51:52.266Z</time>
</trkpt>
<trkpt lat="30.9693600" lon="34.9532500">
<ele>564.090027</ele>
<time>2024-12-11T09:51:52.266Z</time>
</trkpt>
<trkpt lat="30.9693300" lon="34.9526300">
<ele>566.850037</ele>
<time>2024-12-11T09:51:52.266Z</time>
</trkpt>
<trkpt lat="30.9692000" lon="34.9523200">
<ele>564.890015</ele>
<time>2024-12-11T09:51:52.266Z</time>
</trkpt>
<trkpt lat="30.9691000" lon="34.9522100">
<ele>564.429993</ele>
<time>2024-12-11T09:51:52.266Z</time>
</trkpt>
<trkpt lat="30.9688700" lon="34.9521100">
<ele>563.440002</ele>
<time>2024-12-11T09:51:52.266Z</time>
</trkpt>
<trkpt lat="30.9688600" lon="34.9518700">
<ele>563.010010</ele>
<time>2024-12-11T09:51:52.266Z</time>
</trkpt>
<trkpt lat="30.9685800" lon="34.9505000">
<ele>575.459961</ele>
<time>2024-12-11T09:51:52.266Z</time>
</trkpt>
<trkpt lat="30.9681900" lon="34.9498200">
<ele>571.649963</ele>
<time>2024-12-11T09:51:52.266Z</time>
</trkpt>
<trkpt lat="30.9679500" lon="34.9492300">
<ele>562.549988</ele>
<time>2024-12-11T09:51:52.266Z</time>
</trkpt>
<trkpt lat="30.9678700" lon="34.9486300">
<ele>556.419983</ele>
<time>2024-12-11T09:51:52.266Z</time>
</trkpt>
<trkpt lat="30.9678700" lon="34.9483700">
<ele>556.329956</ele>
<time>2024-12-11T09:51:52.266Z</time>
</trkpt>
<trkpt lat="30.9680000" lon="34.9481500">
<ele>555.160034</ele>
<time>2024-12-11T09:51:52.266Z</time>
</trkpt>
<trkpt lat="30.9680200" lon="34.9480900">
<ele>554.330017</ele>
<time>2024-12-11T09:51:52.266Z</time>
</trkpt>
<trkpt lat="30.9680300" lon="34.9463300">
<ele>547.769958</ele>
<time>2024-12-11T09:51:52.266Z</time>
</trkpt>
<trkpt lat="30.9681500" lon="34.9451200">
<ele>539.459961</ele>
<time>2024-12-11T09:51:52.266Z</time>
</trkpt>
<trkpt lat="30.9687100" lon="34.9443500">
<ele>542.940002</ele>
<time>2024-12-11T09:51:52.266Z</time>
</trkpt>
<trkpt lat="30.9687500" lon="34.9428400">
<ele>538.229980</ele>
<time>2024-12-11T09:51:52.266Z</time>
</trkpt>
<trkpt lat="30.9688600" lon="34.9427000">
<ele>537.539978</ele>
<time>2024-12-11T09:51:52.266Z</time>
</trkpt>
<trkpt lat="30.9691000" lon="34.9426700">
<ele>538.960022</ele>
<time>2024-12-11T09:51:52.266Z</time>
</trkpt>
<trkpt lat="30.9706500" lon="34.9426300">
<ele>524.519958</ele>
<time>2024-12-11T09:51:52.266Z</time>
</trkpt>
<trkpt lat="30.9714800" lon="34.9424500">
<ele>532.409973</ele>
<time>2024-12-11T09:51:52.266Z</time>
</trkpt>
<trkpt lat="30.9720000" lon="34.9424500">
<ele>533.450012</ele>
<time>2024-12-11T09:51:52.266Z</time>
</trkpt>
<trkpt lat="30.9724400" lon="34.9425100">
<ele>526.940002</ele>
<time>2024-12-11T09:51:52.266Z</time>
</trkpt>
<trkpt lat="30.9735600" lon="34.9424700">
<ele>522.299988</ele>
<time>2024-12-11T09:51:52.266Z</time>
</trkpt>
<trkpt lat="30.9743100" lon="34.9424900">
<ele>527.109985</ele>
<time>2024-12-11T09:51:52.266Z</time>
</trkpt>
<trkpt lat="30.9749000" lon="34.9428900">
<ele>519.970032</ele>
<time>2024-12-11T09:51:52.266Z</time>
</trkpt>
<trkpt lat="30.9754200" lon="34.9429800">
<ele>514.630005</ele>
<time>2024-12-11T09:51:52.266Z</time>
</trkpt>
<trkpt lat="30.9754600" lon="34.9430800">
<ele>512.599976</ele>
<time>2024-12-11T09:51:52.266Z</time>
</trkpt>
<trkpt lat="30.9754800" lon="34.9435600">
<ele>514.309998</ele>
<time>2024-12-11T09:51:52.266Z</time>
</trkpt>
<trkpt lat="30.9755100" lon="34.9438400">
<ele>518.399963</ele>
<time>2024-12-11T09:51:52.266Z</time>
</trkpt>
<trkpt lat="30.9756300" lon="34.9438800">
<ele>518.909973</ele>
<time>2024-12-11T09:51:52.266Z</time>
</trkpt>
<trkpt lat="30.9757200" lon="34.9438400">
<ele>518.820007</ele>
<time>2024-12-11T09:51:52.266Z</time>
</trkpt>
<trkpt lat="30.9767200" lon="34.9428600">
<ele>516.750000</ele>
<time>2024-12-11T09:51:52.266Z</time>
</trkpt>
<trkpt lat="30.9767900" lon="34.9428200">
<ele>515.220032</ele>
<time>2024-12-11T09:51:52.266Z</time>
</trkpt>
<trkpt lat="30.9771900" lon="34.9427200">
<ele>513.089966</ele>
<time>2024-12-11T09:51:52.266Z</time>
</trkpt>
<trkpt lat="30.9774000" lon="34.9422700">
<ele>513.390015</ele>
<time>2024-12-11T09:51:52.266Z</time>
</trkpt>
<trkpt lat="30.9772500" lon="34.9418100">
<ele>521.649963</ele>
<time>2024-12-11T09:51:52.266Z</time>
</trkpt>
<trkpt lat="30.9771900" lon="34.9417000">
<ele>523.890015</ele>
<time>2024-12-11T09:51:52.266Z</time>
</trkpt>
<trkpt lat="30.9768700" lon="34.9415900">
<ele>526.669983</ele>
<time>2024-12-11T09:51:52.266Z</time>
</trkpt>
<trkpt lat="30.9767800" lon="34.9414900">
<ele>527.109985</ele>
<time>2024-12-11T09:51:52.266Z</time>
</trkpt>
<trkpt lat="30.9766400" lon="34.9404900">
<ele>519.049988</ele>
<time>2024-12-11T09:51:52.266Z</time>
</trkpt>
<trkpt lat="30.9764400" lon="34.9404700">
<ele>518.959961</ele>
<time>2024-12-11T09:51:52.266Z</time>
</trkpt>
<trkpt lat="30.9763600" lon="34.9404400">
<ele>518.820007</ele>
<time>2024-12-11T09:51:52.266Z</time>
</trkpt>
<trkpt lat="30.9761200" lon="34.9396500">
<ele>520.760010</ele>
<time>2024-12-11T09:51:52.266Z</time>
</trkpt>
<trkpt lat="30.9761200" lon="34.9390200">
<ele>517.070007</ele>
<time>2024-12-11T09:51:52.266Z</time>
</trkpt>
<trkpt lat="30.9761200" lon="34.9388600">
<ele>514.640015</ele>
<time>2024-12-11T09:51:52.266Z</time>
</trkpt>
<trkpt lat="30.9763900" lon="34.9382400">
<ele>510.330017</ele>
<time>2024-12-11T09:51:52.266Z</time>
</trkpt>
<trkpt lat="30.9766800" lon="34.9378300">
<ele>501.630005</ele>
<time>2024-12-11T09:51:52.266Z</time>
</trkpt>
<trkpt lat="30.9768500" lon="34.9374900">
<ele>498.650024</ele>
<time>2024-12-11T09:51:52.266Z</time>
</trkpt>
<trkpt lat="30.9771600" lon="34.9367200">
<ele>504.959991</ele>
<time>2024-12-11T09:51:52.266Z</time>
</trkpt>
<trkpt lat="30.9770800" lon="34.9363300">
<ele>498.520020</ele>
<time>2024-12-11T09:51:52.266Z</time>
</trkpt>
<trkpt lat="30.9770900" lon="34.9361200">
<ele>499.130005</ele>
<time>2024-12-11T09:51:52.266Z</time>
</trkpt>
<trkpt lat="30.9771600" lon="34.9359000">
<ele>500.320007</ele>
<time>2024-12-11T09:51:52.266Z</time>
</trkpt>
<trkpt lat="30.9772800" lon="34.9355000">
<ele>503.669983</ele>
<time>2024-12-11T09:51:52.266Z</time>
</trkpt>
<trkpt lat="30.9771900" lon="34.9352500">
<ele>501.489990</ele>
<time>2024-12-11T09:51:52.266Z</time>
</trkpt>
<trkpt lat="30.9771800" lon="34.9344800">
<ele>501.260010</ele>
<time>2024-12-11T09:51:52.266Z</time>
</trkpt>
<trkpt lat="30.9770800" lon="34.9338100">
<ele>510.589996</ele>
<time>2024-12-11T09:51:52.266Z</time>
</trkpt>
<trkpt lat="30.9770200" lon="34.9329100">
<ele>505.670013</ele>
<time>2024-12-11T09:51:52.266Z</time>
</trkpt>
<trkpt lat="30.9769700" lon="34.9326400">
<ele>504.959991</ele>
<time>2024-12-11T09:51:52.266Z</time>
</trkpt>
<trkpt lat="30.9767800" lon="34.9323100">
<ele>503.410004</ele>
<time>2024-12-11T09:51:52.266Z</time>
</trkpt>
<trkpt lat="30.9767800" lon="34.9320200">
<ele>503.110016</ele>
<time>2024-12-11T09:51:52.266Z</time>
</trkpt>
<trkpt lat="30.9769800" lon="34.9318400">
<ele>504.000000</ele>
<time>2024-12-11T09:51:52.266Z</time>
</trkpt>
<trkpt lat="30.9769300" lon="34.9315900">
<ele>506.669983</ele>
<time>2024-12-11T09:51:52.266Z</time>
</trkpt>
<trkpt lat="30.9768200" lon="34.9315000">
<ele>506.459991</ele>
<time>2024-12-11T09:51:52.266Z</time>
</trkpt>
<trkpt lat="30.9767100" lon="34.9313100">
<ele>507.080017</ele>
<time>2024-12-11T09:51:52.266Z</time>
</trkpt>
<trkpt lat="30.9765800" lon="34.9310900">
<ele>507.380005</ele>
<time>2024-12-11T09:51:52.266Z</time>
</trkpt>
<trkpt lat="30.9761700" lon="34.9301400">
<ele>513.229980</ele>
<time>2024-12-11T09:51:52.266Z</time>
</trkpt>
<trkpt lat="30.9753700" lon="34.9295800">
<ele>506.989990</ele>
<time>2024-12-11T09:51:52.266Z</time>
</trkpt>
<trkpt lat="30.9749800" lon="34.9291700">
<ele>500.800018</ele>
<time>2024-12-11T09:51:52.266Z</time>
</trkpt>
<trkpt lat="30.9749500" lon="34.9291100">
<ele>499.550018</ele>
<time>2024-12-11T09:51:52.266Z</time>
</trkpt>
<trkpt lat="30.9748100" lon="34.9284600">
<ele>496.660004</ele>
<time>2024-12-11T09:51:52.266Z</time>
</trkpt>
<trkpt lat="30.9745800" lon="34.9271800">
<ele>493.820007</ele>
<time>2024-12-11T09:51:52.266Z</time>
</trkpt>
<trkpt lat="30.9744900" lon="34.9254800">
<ele>491.680023</ele>
<time>2024-12-11T09:51:52.266Z</time>
</trkpt>
<trkpt lat="30.9744400" lon="34.9243800">
<ele>478.459991</ele>
<time>2024-12-11T09:51:52.266Z</time>
</trkpt>
<trkpt lat="30.9745100" lon="34.9240700">
<ele>478.809998</ele>
<time>2024-12-11T09:51:52.266Z</time>
</trkpt>
<trkpt lat="30.9751700" lon="34.9228300">
<ele>481.600006</ele>
<time>2024-12-11T09:51:52.266Z</time>
</trkpt>
<trkpt lat="30.9755200" lon="34.9220100">
<ele>479.359985</ele>
<time>2024-12-11T09:51:52.266Z</time>
</trkpt>
<trkpt lat="30.9758500" lon="34.9213800">
<ele>476.119995</ele>
<time>2024-12-11T09:51:52.266Z</time>
</trkpt>
<trkpt lat="30.9761700" lon="34.9206300">
<ele>470.820007</ele>
<time>2024-12-11T09:51:52.266Z</time>
</trkpt>
<trkpt lat="30.9766900" lon="34.9199400">
<ele>478.610016</ele>
<time>2024-12-11T09:51:52.266Z</time>
</trkpt>
<trkpt lat="30.9771300" lon="34.9190800">
<ele>477.680023</ele>
<time>2024-12-11T09:51:52.266Z</time>
</trkpt>
<trkpt lat="30.9773400" lon="34.9184600">
<ele>473.069977</ele>
<time>2024-12-11T09:51:52.266Z</time>
</trkpt>
<trkpt lat="30.9774100" lon="34.9180700">
<ele>471.500000</ele>
<time>2024-12-11T09:51:52.266Z</time>
</trkpt>
<trkpt lat="30.9773800" lon="34.9177800">
<ele>469.710022</ele>
<time>2024-12-11T09:51:52.266Z</time>
</trkpt>
<trkpt lat="30.9773200" lon="34.9175700">
<ele>469.279999</ele>
<time>2024-12-11T09:51:52.266Z</time>
</trkpt>
<trkpt lat="30.9772800" lon="34.9174100">
<ele>469.529999</ele>
<time>2024-12-11T09:51:52.266Z</time>
</trkpt>
<trkpt lat="30.9772100" lon="34.9173000">
<ele>469.899994</ele>
<time>2024-12-11T09:51:52.266Z</time>
</trkpt>
<trkpt lat="30.9771200" lon="34.9170000">
<ele>473.069977</ele>
<time>2024-12-11T09:51:52.266Z</time>
</trkpt>
<trkpt lat="30.9770300" lon="34.9167300">
<ele>474.709991</ele>
<time>2024-12-11T09:51:52.266Z</time>
</trkpt>
<trkpt lat="30.9770000" lon="34.9162600">
<ele>470.740021</ele>
<time>2024-12-11T09:51:52.266Z</time>
</trkpt>
<trkpt lat="30.9770000" lon="34.9160200">
<ele>470.130005</ele>
<time>2024-12-11T09:51:52.266Z</time>
</trkpt>
<trkpt lat="30.9768500" lon="34.9153800">
<ele>471.019989</ele>
<time>2024-12-11T09:51:52.266Z</time>
</trkpt>
<trkpt lat="30.9776200" lon="34.9144800">
<ele>464.830017</ele>
<time>2024-12-11T09:51:52.266Z</time>
</trkpt>
<trkpt lat="30.9782000" lon="34.9129500">
<ele>464.059998</ele>
<time>2024-12-11T09:51:52.266Z</time>
</trkpt>
<trkpt lat="30.9782100" lon="34.9123900">
<ele>458.790009</ele>
<time>2024-12-11T09:51:52.266Z</time>
</trkpt>
<trkpt lat="30.9786200" lon="34.9118900">
<ele>455.829987</ele>
<time>2024-12-11T09:51:52.266Z</time>
</trkpt>
<trkpt lat="30.9789800" lon="34.9113600">
<ele>459.950012</ele>
<time>2024-12-11T09:51:52.266Z</time>
</trkpt>
<trkpt lat="30.9792300" lon="34.9111800">
<ele>460.109985</ele>
<time>2024-12-11T09:51:52.266Z</time>
</trkpt>
<trkpt lat="30.9797100" lon="34.9112100">
<ele>454.399994</ele>
<time>2024-12-11T09:51:52.266Z</time>
</trkpt>
<trkpt lat="30.9802300" lon="34.9110600">
<ele>451.999969</ele>
<time>2024-12-11T09:51:52.266Z</time>
</trkpt>
<trkpt lat="30.9804700" lon="34.9108800">
<ele>461.750000</ele>
<time>2024-12-11T09:51:52.266Z</time>
</trkpt>
<trkpt lat="30.9813800" lon="34.9110800">
<ele>451.160004</ele>
<time>2024-12-11T09:51:52.266Z</time>
</trkpt>
<trkpt lat="30.9822600" lon="34.9110700">
<ele>450.620026</ele>
<time>2024-12-11T09:51:52.266Z</time>
</trkpt>
<trkpt lat="30.9828200" lon="34.9106800">
<ele>448.130005</ele>
<time>2024-12-11T09:51:52.266Z</time>
</trkpt>
<trkpt lat="30.9835400" lon="34.9098600">
<ele>451.650024</ele>
<time>2024-12-11T09:51:52.266Z</time>
</trkpt>
<trkpt lat="30.9838800" lon="34.9093700">
<ele>452.129974</ele>
<time>2024-12-11T09:51:52.266Z</time>
</trkpt>
<trkpt lat="30.9851600" lon="34.9086300">
<ele>450.750000</ele>
<time>2024-12-11T09:51:52.266Z</time>
</trkpt>
<trkpt lat="30.9848500" lon="34.9080600">
<ele>464.010010</ele>
<time>2024-12-11T09:51:52.266Z</time>
</trkpt>
<trkpt lat="30.9845900" lon="34.9070200">
<ele>469.389984</ele>
<time>2024-12-11T09:51:52.266Z</time>
</trkpt>
<trkpt lat="30.9845900" lon="34.9067700">
<ele>469.550018</ele>
<time>2024-12-11T09:51:52.266Z</time>
</trkpt>
<trkpt lat="30.9848000" lon="34.9067900">
<ele>467.529999</ele>
<time>2024-12-11T09:51:52.266Z</time>
</trkpt>
<trkpt lat="30.9849000" lon="34.9069900">
<ele>468.339996</ele>
<time>2024-12-11T09:51:52.266Z</time>
</trkpt>
<trkpt lat="30.9852600" lon="34.9073400">
<ele>469.029999</ele>
<time>2024-12-11T09:51:52.266Z</time>
</trkpt>
<trkpt lat="30.9856800" lon="34.9079900">
<ele>467.920013</ele>
<time>2024-12-11T09:51:52.266Z</time>
</trkpt>
<trkpt lat="30.9868200" lon="34.9093700">
<ele>470.600006</ele>
<time>2024-12-11T09:51:52.266Z</time>
</trkpt>
<trkpt lat="30.9873200" lon="34.9099000">
<ele>475.750000</ele>
<time>2024-12-11T09:51:52.266Z</time>
</trkpt>
<trkpt lat="30.9893700" lon="34.9113700">
<ele>456.470001</ele>
<time>2024-12-11T09:51:52.266Z</time>
</trkpt>
<trkpt lat="30.9896300" lon="34.9115900">
<ele>454.350006</ele>
<time>2024-12-11T09:51:52.266Z</time>
</trkpt>
<trkpt lat="30.9898200" lon="34.9118700">
<ele>453.740021</ele>
<time>2024-12-11T09:51:52.266Z</time>
</trkpt>
<trkpt lat="30.9899000" lon="34.9119100">
<ele>453.440002</ele>
<time>2024-12-11T09:51:52.266Z</time>
</trkpt>
<trkpt lat="30.9900300" lon="34.9119300">
<ele>453.380005</ele>
<time>2024-12-11T09:51:52.266Z</time>
</trkpt>
</trkseg>
</trk>
</gpx>
